<?xml version="1.0" encoding="UTF-8" standalone="no" ?>
<gpx xmlns="http://www.topografix.com/GPX/1/1" creator="www.cicloide.com" version="1.1" xmlns:xsi="http://www.w3.org/2001/XMLSchema-instance" xsi:schemaLocation="http://www.topografix.com/GPX/1/1 http://www.topografix.com/GPX/1/1/gpx.xsd">
  <trk>
    <name>www.cicloide.com 17534</name>
    <desc>www.cicloide.com 17534</desc>
    <trkseg>
      <trkpt lat="41.544645000" lon="1.886092000">
        <ele>103.00</ele>
        <time>2014-03-25T18:13:43Z</time>
      </trkpt>
      <trkpt lat="41.544481000" lon="1.885915000">
        <ele>103.00</ele>
        <time>2014-03-25T18:13:57Z</time>
      </trkpt>
      <trkpt lat="41.544450000" lon="1.885875000">
        <ele>103.00</ele>
        <time>2014-03-25T18:14:11Z</time>
      </trkpt>
      <trkpt lat="41.544451000" lon="1.885873000">
        <ele>103.00</ele>
        <time>2014-03-25T18:14:16Z</time>
      </trkpt>
      <trkpt lat="41.544511000" lon="1.885729000">
        <ele>101.20</ele>
        <time>2014-03-25T18:14:22Z</time>
      </trkpt>
      <trkpt lat="41.544876000" lon="1.885281000">
        <ele>99.70</ele>
        <time>2014-03-25T18:14:37Z</time>
      </trkpt>
      <trkpt lat="41.545023000" lon="1.885104000">
        <ele>97.90</ele>
        <time>2014-03-25T18:14:41Z</time>
      </trkpt>
      <trkpt lat="41.545677000" lon="1.884287000">
        <ele>94.90</ele>
        <time>2014-03-25T18:14:57Z</time>
      </trkpt>
      <trkpt lat="41.545644000" lon="1.883927000">
        <ele>95.80</ele>
        <time>2014-03-25T18:15:04Z</time>
      </trkpt>
      <trkpt lat="41.544880000" lon="1.883540000">
        <ele>93.90</ele>
        <time>2014-03-25T18:15:19Z</time>
      </trkpt>
      <trkpt lat="41.544846000" lon="1.883505000">
        <ele>93.60</ele>
        <time>2014-03-25T18:15:20Z</time>
      </trkpt>
      <trkpt lat="41.544669000" lon="1.883216000">
        <ele>96.00</ele>
        <time>2014-03-25T18:15:27Z</time>
      </trkpt>
      <trkpt lat="41.544733000" lon="1.882839000">
        <ele>95.80</ele>
        <time>2014-03-25T18:15:36Z</time>
      </trkpt>
      <trkpt lat="41.544752000" lon="1.882793000">
        <ele>95.70</ele>
        <time>2014-03-25T18:15:37Z</time>
      </trkpt>
      <trkpt lat="41.544802000" lon="1.882517000">
        <ele>94.90</ele>
        <time>2014-03-25T18:15:42Z</time>
      </trkpt>
      <trkpt lat="41.544799000" lon="1.882391000">
        <ele>95.00</ele>
        <time>2014-03-25T18:15:44Z</time>
      </trkpt>
      <trkpt lat="41.544440000" lon="1.881845000">
        <ele>93.90</ele>
        <time>2014-03-25T18:15:55Z</time>
      </trkpt>
      <trkpt lat="41.543979000" lon="1.881951000">
        <ele>93.30</ele>
        <time>2014-03-25T18:16:03Z</time>
      </trkpt>
      <trkpt lat="41.543875000" lon="1.882050000">
        <ele>93.30</ele>
        <time>2014-03-25T18:16:05Z</time>
      </trkpt>
      <trkpt lat="41.543660000" lon="1.882022000">
        <ele>91.70</ele>
        <time>2014-03-25T18:16:09Z</time>
      </trkpt>
      <trkpt lat="41.543486000" lon="1.881903000">
        <ele>90.00</ele>
        <time>2014-03-25T18:16:12Z</time>
      </trkpt>
      <trkpt lat="41.543213000" lon="1.881707000">
        <ele>87.50</ele>
        <time>2014-03-25T18:16:16Z</time>
      </trkpt>
      <trkpt lat="41.542884000" lon="1.881487000">
        <ele>83.30</ele>
        <time>2014-03-25T18:16:20Z</time>
      </trkpt>
      <trkpt lat="41.542709000" lon="1.881376000">
        <ele>82.20</ele>
        <time>2014-03-25T18:16:22Z</time>
      </trkpt>
      <trkpt lat="41.541756000" lon="1.880787000">
        <ele>82.50</ele>
        <time>2014-03-25T18:16:36Z</time>
      </trkpt>
      <trkpt lat="41.541207000" lon="1.880455000">
        <ele>83.90</ele>
        <time>2014-03-25T18:16:46Z</time>
      </trkpt>
      <trkpt lat="41.541095000" lon="1.880258000">
        <ele>83.20</ele>
        <time>2014-03-25T18:16:50Z</time>
      </trkpt>
      <trkpt lat="41.541188000" lon="1.879738000">
        <ele>83.30</ele>
        <time>2014-03-25T18:16:58Z</time>
      </trkpt>
      <trkpt lat="41.541433000" lon="1.878874000">
        <ele>84.60</ele>
        <time>2014-03-25T18:17:12Z</time>
      </trkpt>
      <trkpt lat="41.541966000" lon="1.877954000">
        <ele>84.20</ele>
        <time>2014-03-25T18:17:29Z</time>
      </trkpt>
      <trkpt lat="41.542038000" lon="1.877787000">
        <ele>84.40</ele>
        <time>2014-03-25T18:17:32Z</time>
      </trkpt>
      <trkpt lat="41.542120000" lon="1.877388000">
        <ele>85.60</ele>
        <time>2014-03-25T18:17:39Z</time>
      </trkpt>
      <trkpt lat="41.542184000" lon="1.876965000">
        <ele>87.50</ele>
        <time>2014-03-25T18:17:47Z</time>
      </trkpt>
      <trkpt lat="41.542252000" lon="1.876652000">
        <ele>88.70</ele>
        <time>2014-03-25T18:17:53Z</time>
      </trkpt>
      <trkpt lat="41.542469000" lon="1.875375000">
        <ele>91.20</ele>
        <time>2014-03-25T18:18:16Z</time>
      </trkpt>
      <trkpt lat="41.542695000" lon="1.874184000">
        <ele>93.50</ele>
        <time>2014-03-25T18:18:39Z</time>
      </trkpt>
      <trkpt lat="41.543068000" lon="1.873038000">
        <ele>93.80</ele>
        <time>2014-03-25T18:18:59Z</time>
      </trkpt>
      <trkpt lat="41.543592000" lon="1.872441000">
        <ele>90.70</ele>
        <time>2014-03-25T18:19:11Z</time>
      </trkpt>
      <trkpt lat="41.543639000" lon="1.872383000">
        <ele>90.60</ele>
        <time>2014-03-25T18:19:12Z</time>
      </trkpt>
      <trkpt lat="41.544023000" lon="1.872175000">
        <ele>88.80</ele>
        <time>2014-03-25T18:19:18Z</time>
      </trkpt>
      <trkpt lat="41.544647000" lon="1.872058000">
        <ele>86.50</ele>
        <time>2014-03-25T18:19:27Z</time>
      </trkpt>
      <trkpt lat="41.544975000" lon="1.872197000">
        <ele>87.60</ele>
        <time>2014-03-25T18:19:32Z</time>
      </trkpt>
      <trkpt lat="41.545471000" lon="1.872201000">
        <ele>88.20</ele>
        <time>2014-03-25T18:19:40Z</time>
      </trkpt>
      <trkpt lat="41.546002000" lon="1.871828000">
        <ele>88.60</ele>
        <time>2014-03-25T18:19:50Z</time>
      </trkpt>
      <trkpt lat="41.546313000" lon="1.871786000">
        <ele>88.40</ele>
        <time>2014-03-25T18:19:56Z</time>
      </trkpt>
      <trkpt lat="41.546880000" lon="1.871898000">
        <ele>87.10</ele>
        <time>2014-03-25T18:20:06Z</time>
      </trkpt>
      <trkpt lat="41.547057000" lon="1.871937000">
        <ele>87.00</ele>
        <time>2014-03-25T18:20:09Z</time>
      </trkpt>
      <trkpt lat="41.547416000" lon="1.871892000">
        <ele>86.50</ele>
        <time>2014-03-25T18:20:15Z</time>
      </trkpt>
      <trkpt lat="41.547628000" lon="1.871745000">
        <ele>86.00</ele>
        <time>2014-03-25T18:20:19Z</time>
      </trkpt>
      <trkpt lat="41.548054000" lon="1.871208000">
        <ele>89.20</ele>
        <time>2014-03-25T18:20:32Z</time>
      </trkpt>
      <trkpt lat="41.548523000" lon="1.870629000">
        <ele>92.30</ele>
        <time>2014-03-25T18:20:50Z</time>
      </trkpt>
      <trkpt lat="41.548828000" lon="1.870276000">
        <ele>94.60</ele>
        <time>2014-03-25T18:21:02Z</time>
      </trkpt>
      <trkpt lat="41.549042000" lon="1.870579000">
        <ele>94.80</ele>
        <time>2014-03-25T18:21:10Z</time>
      </trkpt>
      <trkpt lat="41.549066000" lon="1.870628000">
        <ele>94.90</ele>
        <time>2014-03-25T18:21:11Z</time>
      </trkpt>
      <trkpt lat="41.549217000" lon="1.870993000">
        <ele>94.70</ele>
        <time>2014-03-25T18:21:20Z</time>
      </trkpt>
      <trkpt lat="41.549594000" lon="1.871233000">
        <ele>95.40</ele>
        <time>2014-03-25T18:21:29Z</time>
      </trkpt>
      <trkpt lat="41.550187000" lon="1.871673000">
        <ele>97.20</ele>
        <time>2014-03-25T18:21:45Z</time>
      </trkpt>
      <trkpt lat="41.550490000" lon="1.871832000">
        <ele>98.70</ele>
        <time>2014-03-25T18:21:54Z</time>
      </trkpt>
      <trkpt lat="41.551148000" lon="1.872043000">
        <ele>96.10</ele>
        <time>2014-03-25T18:22:09Z</time>
      </trkpt>
      <trkpt lat="41.551459000" lon="1.872138000">
        <ele>92.20</ele>
        <time>2014-03-25T18:22:13Z</time>
      </trkpt>
      <trkpt lat="41.551646000" lon="1.872192000">
        <ele>90.60</ele>
        <time>2014-03-25T18:22:15Z</time>
      </trkpt>
      <trkpt lat="41.551832000" lon="1.872266000">
        <ele>87.10</ele>
        <time>2014-03-25T18:22:17Z</time>
      </trkpt>
      <trkpt lat="41.551920000" lon="1.872308000">
        <ele>86.80</ele>
        <time>2014-03-25T18:22:18Z</time>
      </trkpt>
      <trkpt lat="41.552092000" lon="1.872399000">
        <ele>86.00</ele>
        <time>2014-03-25T18:22:20Z</time>
      </trkpt>
      <trkpt lat="41.552628000" lon="1.872891000">
        <ele>89.60</ele>
        <time>2014-03-25T18:22:28Z</time>
      </trkpt>
      <trkpt lat="41.552782000" lon="1.873035000">
        <ele>91.50</ele>
        <time>2014-03-25T18:22:32Z</time>
      </trkpt>
      <trkpt lat="41.552980000" lon="1.873201000">
        <ele>94.90</ele>
        <time>2014-03-25T18:22:40Z</time>
      </trkpt>
      <trkpt lat="41.553192000" lon="1.873364000">
        <ele>97.90</ele>
        <time>2014-03-25T18:22:50Z</time>
      </trkpt>
      <trkpt lat="41.553411000" lon="1.873497000">
        <ele>101.00</ele>
        <time>2014-03-25T18:23:00Z</time>
      </trkpt>
      <trkpt lat="41.553601000" lon="1.873623000">
        <ele>104.10</ele>
        <time>2014-03-25T18:23:09Z</time>
      </trkpt>
      <trkpt lat="41.553768000" lon="1.873848000">
        <ele>107.70</ele>
        <time>2014-03-25T18:23:19Z</time>
      </trkpt>
      <trkpt lat="41.553780000" lon="1.873881000">
        <ele>107.90</ele>
        <time>2014-03-25T18:23:20Z</time>
      </trkpt>
      <trkpt lat="41.554026000" lon="1.874215000">
        <ele>111.10</ele>
        <time>2014-03-25T18:23:34Z</time>
      </trkpt>
      <trkpt lat="41.554097000" lon="1.874240000">
        <ele>112.40</ele>
        <time>2014-03-25T18:23:37Z</time>
      </trkpt>
      <trkpt lat="41.554410000" lon="1.874371000">
        <ele>115.70</ele>
        <time>2014-03-25T18:23:50Z</time>
      </trkpt>
      <trkpt lat="41.554892000" lon="1.874468000">
        <ele>117.00</ele>
        <time>2014-03-25T18:24:07Z</time>
      </trkpt>
      <trkpt lat="41.555353000" lon="1.874587000">
        <ele>119.00</ele>
        <time>2014-03-25T18:24:22Z</time>
      </trkpt>
      <trkpt lat="41.555852000" lon="1.874777000">
        <ele>121.40</ele>
        <time>2014-03-25T18:24:39Z</time>
      </trkpt>
      <trkpt lat="41.556051000" lon="1.875216000">
        <ele>124.50</ele>
        <time>2014-03-25T18:24:51Z</time>
      </trkpt>
      <trkpt lat="41.556564000" lon="1.875612000">
        <ele>126.40</ele>
        <time>2014-03-25T18:25:10Z</time>
      </trkpt>
      <trkpt lat="41.556935000" lon="1.875258000">
        <ele>126.00</ele>
        <time>2014-03-25T18:25:23Z</time>
      </trkpt>
      <trkpt lat="41.557123000" lon="1.874961000">
        <ele>126.20</ele>
        <time>2014-03-25T18:25:30Z</time>
      </trkpt>
      <trkpt lat="41.557333000" lon="1.874755000">
        <ele>127.50</ele>
        <time>2014-03-25T18:25:37Z</time>
      </trkpt>
      <trkpt lat="41.557428000" lon="1.874874000">
        <ele>128.30</ele>
        <time>2014-03-25T18:25:41Z</time>
      </trkpt>
      <trkpt lat="41.557535000" lon="1.875223000">
        <ele>128.80</ele>
        <time>2014-03-25T18:25:49Z</time>
      </trkpt>
      <trkpt lat="41.557697000" lon="1.875342000">
        <ele>130.40</ele>
        <time>2014-03-25T18:25:54Z</time>
      </trkpt>
      <trkpt lat="41.557734000" lon="1.875357000">
        <ele>129.80</ele>
        <time>2014-03-25T18:25:55Z</time>
      </trkpt>
      <trkpt lat="41.558130000" lon="1.875561000">
        <ele>132.80</ele>
        <time>2014-03-25T18:26:07Z</time>
      </trkpt>
      <trkpt lat="41.558636000" lon="1.875853000">
        <ele>134.70</ele>
        <time>2014-03-25T18:26:23Z</time>
      </trkpt>
      <trkpt lat="41.558858000" lon="1.875841000">
        <ele>132.50</ele>
        <time>2014-03-25T18:26:28Z</time>
      </trkpt>
      <trkpt lat="41.558910000" lon="1.875618000">
        <ele>130.50</ele>
        <time>2014-03-25T18:26:31Z</time>
      </trkpt>
      <trkpt lat="41.558938000" lon="1.875338000">
        <ele>127.90</ele>
        <time>2014-03-25T18:26:34Z</time>
      </trkpt>
      <trkpt lat="41.559164000" lon="1.875146000">
        <ele>128.30</ele>
        <time>2014-03-25T18:26:40Z</time>
      </trkpt>
      <trkpt lat="41.559176000" lon="1.875204000">
        <ele>128.70</ele>
        <time>2014-03-25T18:26:41Z</time>
      </trkpt>
      <trkpt lat="41.559206000" lon="1.875325000">
        <ele>128.90</ele>
        <time>2014-03-25T18:26:43Z</time>
      </trkpt>
      <trkpt lat="41.559379000" lon="1.875544000">
        <ele>129.10</ele>
        <time>2014-03-25T18:26:48Z</time>
      </trkpt>
      <trkpt lat="41.560232000" lon="1.876004000">
        <ele>132.00</ele>
        <time>2014-03-25T18:27:09Z</time>
      </trkpt>
      <trkpt lat="41.560504000" lon="1.876121000">
        <ele>132.30</ele>
        <time>2014-03-25T18:27:16Z</time>
      </trkpt>
      <trkpt lat="41.560720000" lon="1.876055000">
        <ele>131.60</ele>
        <time>2014-03-25T18:27:21Z</time>
      </trkpt>
      <trkpt lat="41.560860000" lon="1.876181000">
        <ele>131.90</ele>
        <time>2014-03-25T18:27:25Z</time>
      </trkpt>
      <trkpt lat="41.560875000" lon="1.876760000">
        <ele>135.90</ele>
        <time>2014-03-25T18:27:36Z</time>
      </trkpt>
      <trkpt lat="41.561063000" lon="1.877012000">
        <ele>138.90</ele>
        <time>2014-03-25T18:27:44Z</time>
      </trkpt>
      <trkpt lat="41.561238000" lon="1.877155000">
        <ele>142.00</ele>
        <time>2014-03-25T18:27:50Z</time>
      </trkpt>
      <trkpt lat="41.561532000" lon="1.877142000">
        <ele>142.10</ele>
        <time>2014-03-25T18:28:02Z</time>
      </trkpt>
      <trkpt lat="41.561676000" lon="1.877094000">
        <ele>139.90</ele>
        <time>2014-03-25T18:28:10Z</time>
      </trkpt>
      <trkpt lat="41.561906000" lon="1.877085000">
        <ele>139.30</ele>
        <time>2014-03-25T18:28:17Z</time>
      </trkpt>
      <trkpt lat="41.562050000" lon="1.877448000">
        <ele>136.80</ele>
        <time>2014-03-25T18:28:24Z</time>
      </trkpt>
      <trkpt lat="41.562040000" lon="1.877605000">
        <ele>136.40</ele>
        <time>2014-03-25T18:28:26Z</time>
      </trkpt>
      <trkpt lat="41.562088000" lon="1.877930000">
        <ele>133.80</ele>
        <time>2014-03-25T18:28:30Z</time>
      </trkpt>
      <trkpt lat="41.562158000" lon="1.878084000">
        <ele>132.80</ele>
        <time>2014-03-25T18:28:32Z</time>
      </trkpt>
      <trkpt lat="41.562273000" lon="1.878293000">
        <ele>130.90</ele>
        <time>2014-03-25T18:28:35Z</time>
      </trkpt>
      <trkpt lat="41.562425000" lon="1.878547000">
        <ele>129.00</ele>
        <time>2014-03-25T18:28:39Z</time>
      </trkpt>
      <trkpt lat="41.562496000" lon="1.878661000">
        <ele>130.10</ele>
        <time>2014-03-25T18:28:41Z</time>
      </trkpt>
      <trkpt lat="41.562840000" lon="1.878867000">
        <ele>127.70</ele>
        <time>2014-03-25T18:28:48Z</time>
      </trkpt>
      <trkpt lat="41.563075000" lon="1.878893000">
        <ele>125.10</ele>
        <time>2014-03-25T18:28:52Z</time>
      </trkpt>
      <trkpt lat="41.563694000" lon="1.878887000">
        <ele>121.70</ele>
        <time>2014-03-25T18:29:02Z</time>
      </trkpt>
      <trkpt lat="41.564494000" lon="1.878834000">
        <ele>118.40</ele>
        <time>2014-03-25T18:29:15Z</time>
      </trkpt>
      <trkpt lat="41.565364000" lon="1.878852000">
        <ele>115.20</ele>
        <time>2014-03-25T18:29:28Z</time>
      </trkpt>
      <trkpt lat="41.565435000" lon="1.878854000">
        <ele>115.30</ele>
        <time>2014-03-25T18:29:29Z</time>
      </trkpt>
      <trkpt lat="41.565895000" lon="1.878912000">
        <ele>113.00</ele>
        <time>2014-03-25T18:29:36Z</time>
      </trkpt>
      <trkpt lat="41.566185000" lon="1.878803000">
        <ele>111.40</ele>
        <time>2014-03-25T18:29:40Z</time>
      </trkpt>
      <trkpt lat="41.566336000" lon="1.878695000">
        <ele>109.80</ele>
        <time>2014-03-25T18:29:42Z</time>
      </trkpt>
      <trkpt lat="41.566584000" lon="1.878617000">
        <ele>108.10</ele>
        <time>2014-03-25T18:29:45Z</time>
      </trkpt>
      <trkpt lat="41.567008000" lon="1.878635000">
        <ele>105.80</ele>
        <time>2014-03-25T18:29:50Z</time>
      </trkpt>
      <trkpt lat="41.567363000" lon="1.878584000">
        <ele>102.50</ele>
        <time>2014-03-25T18:29:54Z</time>
      </trkpt>
      <trkpt lat="41.567937000" lon="1.878229000">
        <ele>99.40</ele>
        <time>2014-03-25T18:30:01Z</time>
      </trkpt>
      <trkpt lat="41.568311000" lon="1.877952000">
        <ele>98.20</ele>
        <time>2014-03-25T18:30:06Z</time>
      </trkpt>
      <trkpt lat="41.568595000" lon="1.877794000">
        <ele>96.10</ele>
        <time>2014-03-25T18:30:11Z</time>
      </trkpt>
      <trkpt lat="41.568638000" lon="1.877822000">
        <ele>95.30</ele>
        <time>2014-03-25T18:30:13Z</time>
      </trkpt>
      <trkpt lat="41.568601000" lon="1.877880000">
        <ele>94.80</ele>
        <time>2014-03-25T18:30:15Z</time>
      </trkpt>
      <trkpt lat="41.567952000" lon="1.878657000">
        <ele>91.60</ele>
        <time>2014-03-25T18:30:31Z</time>
      </trkpt>
      <trkpt lat="41.567144000" lon="1.879744000">
        <ele>90.90</ele>
        <time>2014-03-25T18:30:50Z</time>
      </trkpt>
      <trkpt lat="41.566221000" lon="1.880594000">
        <ele>93.20</ele>
        <time>2014-03-25T18:31:10Z</time>
      </trkpt>
      <trkpt lat="41.566018000" lon="1.880709000">
        <ele>93.60</ele>
        <time>2014-03-25T18:31:14Z</time>
      </trkpt>
      <trkpt lat="41.565580000" lon="1.880958000">
        <ele>94.40</ele>
        <time>2014-03-25T18:31:24Z</time>
      </trkpt>
      <trkpt lat="41.565703000" lon="1.881060000">
        <ele>92.60</ele>
        <time>2014-03-25T18:31:30Z</time>
      </trkpt>
      <trkpt lat="41.566565000" lon="1.880493000">
        <ele>92.60</ele>
        <time>2014-03-25T18:31:48Z</time>
      </trkpt>
      <trkpt lat="41.566783000" lon="1.880460000">
        <ele>93.20</ele>
        <time>2014-03-25T18:31:53Z</time>
      </trkpt>
      <trkpt lat="41.566856000" lon="1.880475000">
        <ele>93.70</ele>
        <time>2014-03-25T18:31:55Z</time>
      </trkpt>
      <trkpt lat="41.566932000" lon="1.880395000">
        <ele>94.60</ele>
        <time>2014-03-25T18:31:59Z</time>
      </trkpt>
      <trkpt lat="41.566980000" lon="1.880415000">
        <ele>95.80</ele>
        <time>2014-03-25T18:32:03Z</time>
      </trkpt>
      <trkpt lat="41.566980000" lon="1.880410000">
        <ele>95.50</ele>
        <time>2014-03-25T18:32:11Z</time>
      </trkpt>
      <trkpt lat="41.567054000" lon="1.880502000">
        <ele>95.80</ele>
        <time>2014-03-25T18:32:16Z</time>
      </trkpt>
      <trkpt lat="41.567229000" lon="1.880529000">
        <ele>98.40</ele>
        <time>2014-03-25T18:32:23Z</time>
      </trkpt>
      <trkpt lat="41.567650000" lon="1.880253000">
        <ele>100.90</ele>
        <time>2014-03-25T18:32:40Z</time>
      </trkpt>
      <trkpt lat="41.567932000" lon="1.880576000">
        <ele>103.00</ele>
        <time>2014-03-25T18:32:54Z</time>
      </trkpt>
      <trkpt lat="41.568188000" lon="1.880679000">
        <ele>104.80</ele>
        <time>2014-03-25T18:33:03Z</time>
      </trkpt>
      <trkpt lat="41.568527000" lon="1.880635000">
        <ele>102.70</ele>
        <time>2014-03-25T18:33:13Z</time>
      </trkpt>
      <trkpt lat="41.568779000" lon="1.880381000">
        <ele>101.20</ele>
        <time>2014-03-25T18:33:20Z</time>
      </trkpt>
      <trkpt lat="41.569294000" lon="1.879919000">
        <ele>97.50</ele>
        <time>2014-03-25T18:33:31Z</time>
      </trkpt>
      <trkpt lat="41.569576000" lon="1.879700000">
        <ele>94.10</ele>
        <time>2014-03-25T18:33:36Z</time>
      </trkpt>
      <trkpt lat="41.569633000" lon="1.879657000">
        <ele>93.80</ele>
        <time>2014-03-25T18:33:37Z</time>
      </trkpt>
      <trkpt lat="41.569863000" lon="1.879473000">
        <ele>94.20</ele>
        <time>2014-03-25T18:33:41Z</time>
      </trkpt>
      <trkpt lat="41.570095000" lon="1.879067000">
        <ele>93.70</ele>
        <time>2014-03-25T18:33:47Z</time>
      </trkpt>
      <trkpt lat="41.570254000" lon="1.878696000">
        <ele>93.90</ele>
        <time>2014-03-25T18:33:52Z</time>
      </trkpt>
      <trkpt lat="41.570355000" lon="1.878517000">
        <ele>93.90</ele>
        <time>2014-03-25T18:33:55Z</time>
      </trkpt>
      <trkpt lat="41.570419000" lon="1.878353000">
        <ele>95.60</ele>
        <time>2014-03-25T18:33:58Z</time>
      </trkpt>
      <trkpt lat="41.570562000" lon="1.878128000">
        <ele>98.70</ele>
        <time>2014-03-25T18:34:05Z</time>
      </trkpt>
      <trkpt lat="41.570709000" lon="1.877849000">
        <ele>102.00</ele>
        <time>2014-03-25T18:34:16Z</time>
      </trkpt>
      <trkpt lat="41.570749000" lon="1.877780000">
        <ele>104.10</ele>
        <time>2014-03-25T18:34:19Z</time>
      </trkpt>
      <trkpt lat="41.570809000" lon="1.877694000">
        <ele>106.10</ele>
        <time>2014-03-25T18:34:23Z</time>
      </trkpt>
      <trkpt lat="41.570899000" lon="1.877578000">
        <ele>108.40</ele>
        <time>2014-03-25T18:34:29Z</time>
      </trkpt>
      <trkpt lat="41.570979000" lon="1.877449000">
        <ele>111.90</ele>
        <time>2014-03-25T18:34:35Z</time>
      </trkpt>
      <trkpt lat="41.570997000" lon="1.877392000">
        <ele>112.60</ele>
        <time>2014-03-25T18:34:37Z</time>
      </trkpt>
      <trkpt lat="41.571044000" lon="1.877233000">
        <ele>114.80</ele>
        <time>2014-03-25T18:34:43Z</time>
      </trkpt>
      <trkpt lat="41.571282000" lon="1.877014000">
        <ele>118.10</ele>
        <time>2014-03-25T18:34:58Z</time>
      </trkpt>
      <trkpt lat="41.571555000" lon="1.876876000">
        <ele>121.50</ele>
        <time>2014-03-25T18:35:12Z</time>
      </trkpt>
      <trkpt lat="41.571573000" lon="1.876860000">
        <ele>121.80</ele>
        <time>2014-03-25T18:35:13Z</time>
      </trkpt>
      <trkpt lat="41.571667000" lon="1.876507000">
        <ele>124.80</ele>
        <time>2014-03-25T18:35:27Z</time>
      </trkpt>
      <trkpt lat="41.571696000" lon="1.876342000">
        <ele>126.60</ele>
        <time>2014-03-25T18:35:33Z</time>
      </trkpt>
      <trkpt lat="41.571797000" lon="1.876088000">
        <ele>130.00</ele>
        <time>2014-03-25T18:35:44Z</time>
      </trkpt>
      <trkpt lat="41.571787000" lon="1.875871000">
        <ele>132.50</ele>
        <time>2014-03-25T18:35:52Z</time>
      </trkpt>
      <trkpt lat="41.571769000" lon="1.875823000">
        <ele>133.30</ele>
        <time>2014-03-25T18:35:54Z</time>
      </trkpt>
      <trkpt lat="41.571778000" lon="1.875391000">
        <ele>135.70</ele>
        <time>2014-03-25T18:36:11Z</time>
      </trkpt>
      <trkpt lat="41.571530000" lon="1.874874000">
        <ele>138.80</ele>
        <time>2014-03-25T18:36:28Z</time>
      </trkpt>
      <trkpt lat="41.571352000" lon="1.874570000">
        <ele>141.40</ele>
        <time>2014-03-25T18:36:39Z</time>
      </trkpt>
      <trkpt lat="41.571332000" lon="1.874466000">
        <ele>143.20</ele>
        <time>2014-03-25T18:36:43Z</time>
      </trkpt>
      <trkpt lat="41.571344000" lon="1.874410000">
        <ele>144.10</ele>
        <time>2014-03-25T18:36:45Z</time>
      </trkpt>
      <trkpt lat="41.571379000" lon="1.874307000">
        <ele>145.50</ele>
        <time>2014-03-25T18:36:49Z</time>
      </trkpt>
      <trkpt lat="41.571544000" lon="1.874184000">
        <ele>149.40</ele>
        <time>2014-03-25T18:36:58Z</time>
      </trkpt>
      <trkpt lat="41.571716000" lon="1.873830000">
        <ele>150.40</ele>
        <time>2014-03-25T18:37:12Z</time>
      </trkpt>
      <trkpt lat="41.571762000" lon="1.873202000">
        <ele>152.40</ele>
        <time>2014-03-25T18:37:29Z</time>
      </trkpt>
      <trkpt lat="41.571661000" lon="1.872741000">
        <ele>155.70</ele>
        <time>2014-03-25T18:37:42Z</time>
      </trkpt>
      <trkpt lat="41.571562000" lon="1.872466000">
        <ele>158.70</ele>
        <time>2014-03-25T18:37:52Z</time>
      </trkpt>
      <trkpt lat="41.571465000" lon="1.872371000">
        <ele>159.70</ele>
        <time>2014-03-25T18:37:57Z</time>
      </trkpt>
      <trkpt lat="41.571319000" lon="1.871808000">
        <ele>162.40</ele>
        <time>2014-03-25T18:38:15Z</time>
      </trkpt>
      <trkpt lat="41.571149000" lon="1.871298000">
        <ele>162.80</ele>
        <time>2014-03-25T18:38:31Z</time>
      </trkpt>
      <trkpt lat="41.571214000" lon="1.870861000">
        <ele>162.70</ele>
        <time>2014-03-25T18:38:43Z</time>
      </trkpt>
      <trkpt lat="41.571343000" lon="1.870389000">
        <ele>161.50</ele>
        <time>2014-03-25T18:38:54Z</time>
      </trkpt>
      <trkpt lat="41.571360000" lon="1.870349000">
        <ele>161.50</ele>
        <time>2014-03-25T18:38:55Z</time>
      </trkpt>
      <trkpt lat="41.571269000" lon="1.870107000">
        <ele>161.10</ele>
        <time>2014-03-25T18:39:01Z</time>
      </trkpt>
      <trkpt lat="41.570935000" lon="1.869763000">
        <ele>160.60</ele>
        <time>2014-03-25T18:39:13Z</time>
      </trkpt>
      <trkpt lat="41.570852000" lon="1.869511000">
        <ele>157.20</ele>
        <time>2014-03-25T18:39:17Z</time>
      </trkpt>
      <trkpt lat="41.570814000" lon="1.869154000">
        <ele>153.30</ele>
        <time>2014-03-25T18:39:21Z</time>
      </trkpt>
      <trkpt lat="41.570808000" lon="1.869064000">
        <ele>151.80</ele>
        <time>2014-03-25T18:39:22Z</time>
      </trkpt>
      <trkpt lat="41.570658000" lon="1.868698000">
        <ele>147.10</ele>
        <time>2014-03-25T18:39:27Z</time>
      </trkpt>
      <trkpt lat="41.570527000" lon="1.868618000">
        <ele>145.40</ele>
        <time>2014-03-25T18:39:29Z</time>
      </trkpt>
      <trkpt lat="41.570402000" lon="1.868567000">
        <ele>143.30</ele>
        <time>2014-03-25T18:39:31Z</time>
      </trkpt>
      <trkpt lat="41.570229000" lon="1.868309000">
        <ele>139.20</ele>
        <time>2014-03-25T18:39:35Z</time>
      </trkpt>
      <trkpt lat="41.570145000" lon="1.868146000">
        <ele>137.60</ele>
        <time>2014-03-25T18:39:37Z</time>
      </trkpt>
      <trkpt lat="41.570104000" lon="1.868074000">
        <ele>136.60</ele>
        <time>2014-03-25T18:39:38Z</time>
      </trkpt>
      <trkpt lat="41.570030000" lon="1.867721000">
        <ele>130.80</ele>
        <time>2014-03-25T18:39:42Z</time>
      </trkpt>
      <trkpt lat="41.570042000" lon="1.867625000">
        <ele>130.30</ele>
        <time>2014-03-25T18:39:43Z</time>
      </trkpt>
      <trkpt lat="41.570119000" lon="1.867248000">
        <ele>129.50</ele>
        <time>2014-03-25T18:39:47Z</time>
      </trkpt>
      <trkpt lat="41.570315000" lon="1.866827000">
        <ele>124.30</ele>
        <time>2014-03-25T18:39:52Z</time>
      </trkpt>
      <trkpt lat="41.570423000" lon="1.866628000">
        <ele>121.30</ele>
        <time>2014-03-25T18:39:54Z</time>
      </trkpt>
      <trkpt lat="41.570550000" lon="1.866440000">
        <ele>120.30</ele>
        <time>2014-03-25T18:39:56Z</time>
      </trkpt>
      <trkpt lat="41.570758000" lon="1.866233000">
        <ele>121.00</ele>
        <time>2014-03-25T18:39:59Z</time>
      </trkpt>
      <trkpt lat="41.570961000" lon="1.866082000">
        <ele>120.50</ele>
        <time>2014-03-25T18:40:02Z</time>
      </trkpt>
      <trkpt lat="41.571145000" lon="1.865912000">
        <ele>123.40</ele>
        <time>2014-03-25T18:40:06Z</time>
      </trkpt>
      <trkpt lat="41.571567000" lon="1.865757000">
        <ele>123.30</ele>
        <time>2014-03-25T18:40:16Z</time>
      </trkpt>
      <trkpt lat="41.571770000" lon="1.865792000">
        <ele>122.50</ele>
        <time>2014-03-25T18:40:20Z</time>
      </trkpt>
      <trkpt lat="41.572030000" lon="1.865890000">
        <ele>122.20</ele>
        <time>2014-03-25T18:40:25Z</time>
      </trkpt>
      <trkpt lat="41.572261000" lon="1.866064000">
        <ele>119.00</ele>
        <time>2014-03-25T18:40:30Z</time>
      </trkpt>
      <trkpt lat="41.572371000" lon="1.866148000">
        <ele>118.40</ele>
        <time>2014-03-25T18:40:32Z</time>
      </trkpt>
      <trkpt lat="41.572599000" lon="1.866232000">
        <ele>119.20</ele>
        <time>2014-03-25T18:40:36Z</time>
      </trkpt>
      <trkpt lat="41.572697000" lon="1.866235000">
        <ele>119.90</ele>
        <time>2014-03-25T18:40:38Z</time>
      </trkpt>
      <trkpt lat="41.573147000" lon="1.866179000">
        <ele>121.70</ele>
        <time>2014-03-25T18:40:50Z</time>
      </trkpt>
      <trkpt lat="41.573644000" lon="1.865832000">
        <ele>122.50</ele>
        <time>2014-03-25T18:41:05Z</time>
      </trkpt>
      <trkpt lat="41.574336000" lon="1.865167000">
        <ele>125.20</ele>
        <time>2014-03-25T18:41:28Z</time>
      </trkpt>
      <trkpt lat="41.574457000" lon="1.864830000">
        <ele>124.20</ele>
        <time>2014-03-25T18:41:36Z</time>
      </trkpt>
      <trkpt lat="41.574559000" lon="1.864627000">
        <ele>122.10</ele>
        <time>2014-03-25T18:41:39Z</time>
      </trkpt>
      <trkpt lat="41.574646000" lon="1.864484000">
        <ele>120.40</ele>
        <time>2014-03-25T18:41:41Z</time>
      </trkpt>
      <trkpt lat="41.574716000" lon="1.864310000">
        <ele>119.00</ele>
        <time>2014-03-25T18:41:43Z</time>
      </trkpt>
      <trkpt lat="41.574751000" lon="1.864217000">
        <ele>117.50</ele>
        <time>2014-03-25T18:41:44Z</time>
      </trkpt>
      <trkpt lat="41.575030000" lon="1.863707000">
        <ele>118.40</ele>
        <time>2014-03-25T18:41:51Z</time>
      </trkpt>
      <trkpt lat="41.575291000" lon="1.863521000">
        <ele>121.70</ele>
        <time>2014-03-25T18:41:58Z</time>
      </trkpt>
      <trkpt lat="41.575483000" lon="1.863446000">
        <ele>125.10</ele>
        <time>2014-03-25T18:42:05Z</time>
      </trkpt>
      <trkpt lat="41.575842000" lon="1.863153000">
        <ele>128.20</ele>
        <time>2014-03-25T18:42:20Z</time>
      </trkpt>
      <trkpt lat="41.576226000" lon="1.862687000">
        <ele>129.50</ele>
        <time>2014-03-25T18:42:38Z</time>
      </trkpt>
      <trkpt lat="41.576743000" lon="1.862313000">
        <ele>128.40</ele>
        <time>2014-03-25T18:42:54Z</time>
      </trkpt>
      <trkpt lat="41.576909000" lon="1.862229000">
        <ele>127.70</ele>
        <time>2014-03-25T18:42:58Z</time>
      </trkpt>
      <trkpt lat="41.577037000" lon="1.862144000">
        <ele>126.60</ele>
        <time>2014-03-25T18:43:01Z</time>
      </trkpt>
      <trkpt lat="41.577173000" lon="1.861963000">
        <ele>126.20</ele>
        <time>2014-03-25T18:43:05Z</time>
      </trkpt>
      <trkpt lat="41.577306000" lon="1.861831000">
        <ele>126.60</ele>
        <time>2014-03-25T18:43:09Z</time>
      </trkpt>
      <trkpt lat="41.577568000" lon="1.861717000">
        <ele>125.30</ele>
        <time>2014-03-25T18:43:15Z</time>
      </trkpt>
      <trkpt lat="41.577839000" lon="1.861534000">
        <ele>121.40</ele>
        <time>2014-03-25T18:43:20Z</time>
      </trkpt>
      <trkpt lat="41.578119000" lon="1.861454000">
        <ele>121.20</ele>
        <time>2014-03-25T18:43:24Z</time>
      </trkpt>
      <trkpt lat="41.578423000" lon="1.861375000">
        <ele>118.90</ele>
        <time>2014-03-25T18:43:29Z</time>
      </trkpt>
      <trkpt lat="41.578701000" lon="1.861424000">
        <ele>118.10</ele>
        <time>2014-03-25T18:43:33Z</time>
      </trkpt>
      <trkpt lat="41.578852000" lon="1.861472000">
        <ele>118.40</ele>
        <time>2014-03-25T18:43:36Z</time>
      </trkpt>
      <trkpt lat="41.578986000" lon="1.861486000">
        <ele>118.20</ele>
        <time>2014-03-25T18:43:39Z</time>
      </trkpt>
      <trkpt lat="41.579121000" lon="1.861466000">
        <ele>119.00</ele>
        <time>2014-03-25T18:43:42Z</time>
      </trkpt>
      <trkpt lat="41.579541000" lon="1.861491000">
        <ele>118.60</ele>
        <time>2014-03-25T18:43:51Z</time>
      </trkpt>
      <trkpt lat="41.580128000" lon="1.861421000">
        <ele>120.10</ele>
        <time>2014-03-25T18:44:05Z</time>
      </trkpt>
      <trkpt lat="41.580624000" lon="1.861444000">
        <ele>122.10</ele>
        <time>2014-03-25T18:44:20Z</time>
      </trkpt>
      <trkpt lat="41.580891000" lon="1.861311000">
        <ele>121.60</ele>
        <time>2014-03-25T18:44:28Z</time>
      </trkpt>
      <trkpt lat="41.581256000" lon="1.861126000">
        <ele>121.00</ele>
        <time>2014-03-25T18:44:38Z</time>
      </trkpt>
      <trkpt lat="41.581528000" lon="1.860718000">
        <ele>121.60</ele>
        <time>2014-03-25T18:44:49Z</time>
      </trkpt>
      <trkpt lat="41.581642000" lon="1.860584000">
        <ele>121.40</ele>
        <time>2014-03-25T18:44:53Z</time>
      </trkpt>
      <trkpt lat="41.582046000" lon="1.860120000">
        <ele>120.30</ele>
        <time>2014-03-25T18:45:06Z</time>
      </trkpt>
      <trkpt lat="41.582142000" lon="1.859974000">
        <ele>119.70</ele>
        <time>2014-03-25T18:45:09Z</time>
      </trkpt>
      <trkpt lat="41.582275000" lon="1.859711000">
        <ele>118.00</ele>
        <time>2014-03-25T18:45:14Z</time>
      </trkpt>
      <trkpt lat="41.582557000" lon="1.859330000">
        <ele>119.40</ele>
        <time>2014-03-25T18:45:24Z</time>
      </trkpt>
      <trkpt lat="41.582853000" lon="1.858953000">
        <ele>119.90</ele>
        <time>2014-03-25T18:45:35Z</time>
      </trkpt>
      <trkpt lat="41.583140000" lon="1.858587000">
        <ele>121.70</ele>
        <time>2014-03-25T18:45:45Z</time>
      </trkpt>
      <trkpt lat="41.583387000" lon="1.858344000">
        <ele>122.30</ele>
        <time>2014-03-25T18:45:53Z</time>
      </trkpt>
      <trkpt lat="41.583545000" lon="1.858330000">
        <ele>122.20</ele>
        <time>2014-03-25T18:45:57Z</time>
      </trkpt>
      <trkpt lat="41.583801000" lon="1.858213000">
        <ele>122.70</ele>
        <time>2014-03-25T18:46:04Z</time>
      </trkpt>
      <trkpt lat="41.584309000" lon="1.857638000">
        <ele>123.40</ele>
        <time>2014-03-25T18:46:21Z</time>
      </trkpt>
      <trkpt lat="41.584789000" lon="1.857194000">
        <ele>123.60</ele>
        <time>2014-03-25T18:46:36Z</time>
      </trkpt>
      <trkpt lat="41.584956000" lon="1.857020000">
        <ele>123.40</ele>
        <time>2014-03-25T18:46:41Z</time>
      </trkpt>
      <trkpt lat="41.585095000" lon="1.856899000">
        <ele>123.30</ele>
        <time>2014-03-25T18:46:45Z</time>
      </trkpt>
      <trkpt lat="41.585212000" lon="1.856836000">
        <ele>123.00</ele>
        <time>2014-03-25T18:46:48Z</time>
      </trkpt>
      <trkpt lat="41.585301000" lon="1.856661000">
        <ele>121.90</ele>
        <time>2014-03-25T18:46:52Z</time>
      </trkpt>
      <trkpt lat="41.585606000" lon="1.856190000">
        <ele>120.30</ele>
        <time>2014-03-25T18:47:03Z</time>
      </trkpt>
      <trkpt lat="41.585695000" lon="1.856127000">
        <ele>119.90</ele>
        <time>2014-03-25T18:47:05Z</time>
      </trkpt>
      <trkpt lat="41.586122000" lon="1.855936000">
        <ele>119.20</ele>
        <time>2014-03-25T18:47:13Z</time>
      </trkpt>
      <trkpt lat="41.586374000" lon="1.855695000">
        <ele>120.10</ele>
        <time>2014-03-25T18:47:20Z</time>
      </trkpt>
      <trkpt lat="41.586504000" lon="1.855649000">
        <ele>120.30</ele>
        <time>2014-03-25T18:47:24Z</time>
      </trkpt>
      <trkpt lat="41.586789000" lon="1.855468000">
        <ele>119.80</ele>
        <time>2014-03-25T18:47:32Z</time>
      </trkpt>
      <trkpt lat="41.587273000" lon="1.855281000">
        <ele>118.00</ele>
        <time>2014-03-25T18:47:42Z</time>
      </trkpt>
      <trkpt lat="41.587373000" lon="1.855176000">
        <ele>118.70</ele>
        <time>2014-03-25T18:47:45Z</time>
      </trkpt>
      <trkpt lat="41.587609000" lon="1.855051000">
        <ele>119.20</ele>
        <time>2014-03-25T18:47:51Z</time>
      </trkpt>
      <trkpt lat="41.587779000" lon="1.855020000">
        <ele>119.10</ele>
        <time>2014-03-25T18:47:55Z</time>
      </trkpt>
      <trkpt lat="41.587859000" lon="1.854992000">
        <ele>119.10</ele>
        <time>2014-03-25T18:47:57Z</time>
      </trkpt>
      <trkpt lat="41.587993000" lon="1.854895000">
        <ele>119.60</ele>
        <time>2014-03-25T18:48:01Z</time>
      </trkpt>
      <trkpt lat="41.588064000" lon="1.854712000">
        <ele>119.90</ele>
        <time>2014-03-25T18:48:05Z</time>
      </trkpt>
      <trkpt lat="41.588284000" lon="1.854593000">
        <ele>120.50</ele>
        <time>2014-03-25T18:48:10Z</time>
      </trkpt>
      <trkpt lat="41.588742000" lon="1.854293000">
        <ele>121.40</ele>
        <time>2014-03-25T18:48:23Z</time>
      </trkpt>
      <trkpt lat="41.588824000" lon="1.854199000">
        <ele>121.50</ele>
        <time>2014-03-25T18:48:26Z</time>
      </trkpt>
      <trkpt lat="41.588946000" lon="1.854092000">
        <ele>121.20</ele>
        <time>2014-03-25T18:48:30Z</time>
      </trkpt>
      <trkpt lat="41.589404000" lon="1.853770000">
        <ele>120.10</ele>
        <time>2014-03-25T18:48:42Z</time>
      </trkpt>
      <trkpt lat="41.589717000" lon="1.853548000">
        <ele>119.50</ele>
        <time>2014-03-25T18:48:49Z</time>
      </trkpt>
      <trkpt lat="41.589950000" lon="1.853308000">
        <ele>119.60</ele>
        <time>2014-03-25T18:48:57Z</time>
      </trkpt>
      <trkpt lat="41.590050000" lon="1.853262000">
        <ele>120.10</ele>
        <time>2014-03-25T18:49:01Z</time>
      </trkpt>
      <trkpt lat="41.590330000" lon="1.853016000">
        <ele>120.40</ele>
        <time>2014-03-25T18:49:17Z</time>
      </trkpt>
      <trkpt lat="41.590371000" lon="1.852968000">
        <ele>120.30</ele>
        <time>2014-03-25T18:49:19Z</time>
      </trkpt>
      <trkpt lat="41.590774000" lon="1.852612000">
        <ele>120.00</ele>
        <time>2014-03-25T18:49:33Z</time>
      </trkpt>
      <trkpt lat="41.590875000" lon="1.852524000">
        <ele>120.20</ele>
        <time>2014-03-25T18:49:36Z</time>
      </trkpt>
      <trkpt lat="41.590920000" lon="1.852463000">
        <ele>120.60</ele>
        <time>2014-03-25T18:49:38Z</time>
      </trkpt>
      <trkpt lat="41.591081000" lon="1.852378000">
        <ele>119.60</ele>
        <time>2014-03-25T18:49:42Z</time>
      </trkpt>
      <trkpt lat="41.591240000" lon="1.852373000">
        <ele>120.00</ele>
        <time>2014-03-25T18:49:45Z</time>
      </trkpt>
      <trkpt lat="41.591952000" lon="1.852633000">
        <ele>118.00</ele>
        <time>2014-03-25T18:49:59Z</time>
      </trkpt>
      <trkpt lat="41.592418000" lon="1.853178000">
        <ele>117.10</ele>
        <time>2014-03-25T18:50:11Z</time>
      </trkpt>
      <trkpt lat="41.592718000" lon="1.853861000">
        <ele>118.70</ele>
        <time>2014-03-25T18:50:25Z</time>
      </trkpt>
      <trkpt lat="41.593036000" lon="1.854474000">
        <ele>121.20</ele>
        <time>2014-03-25T18:50:40Z</time>
      </trkpt>
      <trkpt lat="41.593167000" lon="1.854575000">
        <ele>120.00</ele>
        <time>2014-03-25T18:50:43Z</time>
      </trkpt>
      <trkpt lat="41.593391000" lon="1.854917000">
        <ele>119.80</ele>
        <time>2014-03-25T18:50:51Z</time>
      </trkpt>
      <trkpt lat="41.593800000" lon="1.855431000">
        <ele>122.20</ele>
        <time>2014-03-25T18:51:07Z</time>
      </trkpt>
      <trkpt lat="41.594012000" lon="1.855678000">
        <ele>122.60</ele>
        <time>2014-03-25T18:51:15Z</time>
      </trkpt>
      <trkpt lat="41.594594000" lon="1.855843000">
        <ele>123.90</ele>
        <time>2014-03-25T18:51:30Z</time>
      </trkpt>
      <trkpt lat="41.595189000" lon="1.855804000">
        <ele>121.20</ele>
        <time>2014-03-25T18:51:44Z</time>
      </trkpt>
      <trkpt lat="41.595671000" lon="1.855619000">
        <ele>122.00</ele>
        <time>2014-03-25T18:51:55Z</time>
      </trkpt>
      <trkpt lat="41.596293000" lon="1.855333000">
        <ele>121.50</ele>
        <time>2014-03-25T18:52:08Z</time>
      </trkpt>
      <trkpt lat="41.596408000" lon="1.855288000">
        <ele>122.80</ele>
        <time>2014-03-25T18:52:11Z</time>
      </trkpt>
      <trkpt lat="41.596565000" lon="1.855242000">
        <ele>121.90</ele>
        <time>2014-03-25T18:52:15Z</time>
      </trkpt>
      <trkpt lat="41.596701000" lon="1.855213000">
        <ele>121.60</ele>
        <time>2014-03-25T18:52:18Z</time>
      </trkpt>
      <trkpt lat="41.596916000" lon="1.855084000">
        <ele>122.30</ele>
        <time>2014-03-25T18:52:23Z</time>
      </trkpt>
      <trkpt lat="41.597247000" lon="1.854773000">
        <ele>121.20</ele>
        <time>2014-03-25T18:52:31Z</time>
      </trkpt>
      <trkpt lat="41.597482000" lon="1.854439000">
        <ele>119.60</ele>
        <time>2014-03-25T18:52:38Z</time>
      </trkpt>
      <trkpt lat="41.597550000" lon="1.854347000">
        <ele>122.90</ele>
        <time>2014-03-25T18:52:40Z</time>
      </trkpt>
      <trkpt lat="41.597586000" lon="1.854302000">
        <ele>122.70</ele>
        <time>2014-03-25T18:52:41Z</time>
      </trkpt>
      <trkpt lat="41.597770000" lon="1.853887000">
        <ele>122.10</ele>
        <time>2014-03-25T18:52:49Z</time>
      </trkpt>
      <trkpt lat="41.597912000" lon="1.853672000">
        <ele>121.90</ele>
        <time>2014-03-25T18:52:54Z</time>
      </trkpt>
      <trkpt lat="41.598005000" lon="1.853563000">
        <ele>121.60</ele>
        <time>2014-03-25T18:52:57Z</time>
      </trkpt>
      <trkpt lat="41.598118000" lon="1.853343000">
        <ele>122.40</ele>
        <time>2014-03-25T18:53:02Z</time>
      </trkpt>
      <trkpt lat="41.598310000" lon="1.853089000">
        <ele>125.50</ele>
        <time>2014-03-25T18:53:10Z</time>
      </trkpt>
      <trkpt lat="41.598697000" lon="1.852539000">
        <ele>128.70</ele>
        <time>2014-03-25T18:53:28Z</time>
      </trkpt>
      <trkpt lat="41.599160000" lon="1.852049000">
        <ele>128.80</ele>
        <time>2014-03-25T18:53:45Z</time>
      </trkpt>
      <trkpt lat="41.599658000" lon="1.851910000">
        <ele>129.60</ele>
        <time>2014-03-25T18:53:58Z</time>
      </trkpt>
      <trkpt lat="41.599791000" lon="1.851903000">
        <ele>126.90</ele>
        <time>2014-03-25T18:54:01Z</time>
      </trkpt>
      <trkpt lat="41.600008000" lon="1.851947000">
        <ele>125.30</ele>
        <time>2014-03-25T18:54:06Z</time>
      </trkpt>
      <trkpt lat="41.600337000" lon="1.852065000">
        <ele>123.00</ele>
        <time>2014-03-25T18:54:13Z</time>
      </trkpt>
      <trkpt lat="41.600521000" lon="1.852172000">
        <ele>119.50</ele>
        <time>2014-03-25T18:54:16Z</time>
      </trkpt>
      <trkpt lat="41.600812000" lon="1.852416000">
        <ele>118.40</ele>
        <time>2014-03-25T18:54:21Z</time>
      </trkpt>
      <trkpt lat="41.601260000" lon="1.852925000">
        <ele>119.10</ele>
        <time>2014-03-25T18:54:33Z</time>
      </trkpt>
      <trkpt lat="41.601373000" lon="1.853103000">
        <ele>120.00</ele>
        <time>2014-03-25T18:54:37Z</time>
      </trkpt>
      <trkpt lat="41.601601000" lon="1.853389000">
        <ele>119.10</ele>
        <time>2014-03-25T18:54:44Z</time>
      </trkpt>
      <trkpt lat="41.601913000" lon="1.853668000">
        <ele>118.60</ele>
        <time>2014-03-25T18:54:52Z</time>
      </trkpt>
      <trkpt lat="41.602281000" lon="1.853926000">
        <ele>120.30</ele>
        <time>2014-03-25T18:55:01Z</time>
      </trkpt>
      <trkpt lat="41.602367000" lon="1.853968000">
        <ele>120.70</ele>
        <time>2014-03-25T18:55:03Z</time>
      </trkpt>
      <trkpt lat="41.602827000" lon="1.854006000">
        <ele>123.00</ele>
        <time>2014-03-25T18:55:14Z</time>
      </trkpt>
      <trkpt lat="41.603038000" lon="1.854014000">
        <ele>122.30</ele>
        <time>2014-03-25T18:55:19Z</time>
      </trkpt>
      <trkpt lat="41.603751000" lon="1.853655000">
        <ele>122.30</ele>
        <time>2014-03-25T18:55:36Z</time>
      </trkpt>
      <trkpt lat="41.604469000" lon="1.853147000">
        <ele>121.30</ele>
        <time>2014-03-25T18:55:52Z</time>
      </trkpt>
      <trkpt lat="41.604642000" lon="1.853024000">
        <ele>120.40</ele>
        <time>2014-03-25T18:55:56Z</time>
      </trkpt>
      <trkpt lat="41.604761000" lon="1.852923000">
        <ele>121.60</ele>
        <time>2014-03-25T18:55:59Z</time>
      </trkpt>
      <trkpt lat="41.605190000" lon="1.852442000">
        <ele>120.90</ele>
        <time>2014-03-25T18:56:10Z</time>
      </trkpt>
      <trkpt lat="41.605608000" lon="1.851992000">
        <ele>120.00</ele>
        <time>2014-03-25T18:56:21Z</time>
      </trkpt>
      <trkpt lat="41.605973000" lon="1.851626000">
        <ele>120.00</ele>
        <time>2014-03-25T18:56:30Z</time>
      </trkpt>
      <trkpt lat="41.606134000" lon="1.851468000">
        <ele>119.10</ele>
        <time>2014-03-25T18:56:34Z</time>
      </trkpt>
      <trkpt lat="41.606256000" lon="1.851332000">
        <ele>118.60</ele>
        <time>2014-03-25T18:56:37Z</time>
      </trkpt>
      <trkpt lat="41.606334000" lon="1.851241000">
        <ele>118.20</ele>
        <time>2014-03-25T18:56:39Z</time>
      </trkpt>
      <trkpt lat="41.606431000" lon="1.851076000">
        <ele>117.70</ele>
        <time>2014-03-25T18:56:42Z</time>
      </trkpt>
      <trkpt lat="41.606501000" lon="1.850977000">
        <ele>117.80</ele>
        <time>2014-03-25T18:56:44Z</time>
      </trkpt>
      <trkpt lat="41.606606000" lon="1.850843000">
        <ele>118.40</ele>
        <time>2014-03-25T18:56:47Z</time>
      </trkpt>
      <trkpt lat="41.606733000" lon="1.850646000">
        <ele>119.10</ele>
        <time>2014-03-25T18:56:51Z</time>
      </trkpt>
      <trkpt lat="41.607339000" lon="1.850226000">
        <ele>119.90</ele>
        <time>2014-03-25T18:57:07Z</time>
      </trkpt>
      <trkpt lat="41.607729000" lon="1.850090000">
        <ele>119.80</ele>
        <time>2014-03-25T18:57:16Z</time>
      </trkpt>
      <trkpt lat="41.607875000" lon="1.850002000">
        <ele>120.40</ele>
        <time>2014-03-25T18:57:20Z</time>
      </trkpt>
      <trkpt lat="41.607979000" lon="1.849909000">
        <ele>119.00</ele>
        <time>2014-03-25T18:57:23Z</time>
      </trkpt>
      <trkpt lat="41.608716000" lon="1.849129000">
        <ele>119.80</ele>
        <time>2014-03-25T18:57:46Z</time>
      </trkpt>
      <trkpt lat="41.608809000" lon="1.849010000">
        <ele>120.20</ele>
        <time>2014-03-25T18:57:50Z</time>
      </trkpt>
      <trkpt lat="41.608930000" lon="1.849004000">
        <ele>122.30</ele>
        <time>2014-03-25T18:57:55Z</time>
      </trkpt>
      <trkpt lat="41.609044000" lon="1.849117000">
        <ele>125.80</ele>
        <time>2014-03-25T18:58:02Z</time>
      </trkpt>
      <trkpt lat="41.609216000" lon="1.848988000">
        <ele>129.00</ele>
        <time>2014-03-25T18:58:13Z</time>
      </trkpt>
      <trkpt lat="41.609244000" lon="1.848986000">
        <ele>129.80</ele>
        <time>2014-03-25T18:58:15Z</time>
      </trkpt>
      <trkpt lat="41.609251000" lon="1.849051000">
        <ele>131.00</ele>
        <time>2014-03-25T18:58:20Z</time>
      </trkpt>
      <trkpt lat="41.609134000" lon="1.849281000">
        <ele>134.20</ele>
        <time>2014-03-25T18:58:31Z</time>
      </trkpt>
      <trkpt lat="41.609020000" lon="1.849480000">
        <ele>137.50</ele>
        <time>2014-03-25T18:58:41Z</time>
      </trkpt>
      <trkpt lat="41.608944000" lon="1.849606000">
        <ele>139.50</ele>
        <time>2014-03-25T18:58:47Z</time>
      </trkpt>
      <trkpt lat="41.609016000" lon="1.849640000">
        <ele>140.40</ele>
        <time>2014-03-25T18:58:52Z</time>
      </trkpt>
      <trkpt lat="41.609119000" lon="1.849556000">
        <ele>142.40</ele>
        <time>2014-03-25T18:58:58Z</time>
      </trkpt>
      <trkpt lat="41.609232000" lon="1.849527000">
        <ele>143.80</ele>
        <time>2014-03-25T18:59:04Z</time>
      </trkpt>
      <trkpt lat="41.609476000" lon="1.849729000">
        <ele>145.20</ele>
        <time>2014-03-25T18:59:20Z</time>
      </trkpt>
      <trkpt lat="41.609604000" lon="1.849735000">
        <ele>146.10</ele>
        <time>2014-03-25T18:59:26Z</time>
      </trkpt>
      <trkpt lat="41.609812000" lon="1.849585000">
        <ele>148.20</ele>
        <time>2014-03-25T18:59:38Z</time>
      </trkpt>
      <trkpt lat="41.610191000" lon="1.849221000">
        <ele>150.60</ele>
        <time>2014-03-25T18:59:58Z</time>
      </trkpt>
      <trkpt lat="41.610576000" lon="1.849002000">
        <ele>152.60</ele>
        <time>2014-03-25T19:00:13Z</time>
      </trkpt>
      <trkpt lat="41.610791000" lon="1.848912000">
        <ele>154.20</ele>
        <time>2014-03-25T19:00:21Z</time>
      </trkpt>
      <trkpt lat="41.611003000" lon="1.848671000">
        <ele>157.40</ele>
        <time>2014-03-25T19:00:33Z</time>
      </trkpt>
      <trkpt lat="41.611133000" lon="1.848582000">
        <ele>159.80</ele>
        <time>2014-03-25T19:00:39Z</time>
      </trkpt>
      <trkpt lat="41.611395000" lon="1.848637000">
        <ele>159.40</ele>
        <time>2014-03-25T19:00:50Z</time>
      </trkpt>
      <trkpt lat="41.611485000" lon="1.848765000">
        <ele>161.80</ele>
        <time>2014-03-25T19:00:55Z</time>
      </trkpt>
      <trkpt lat="41.611840000" lon="1.849071000">
        <ele>161.40</ele>
        <time>2014-03-25T19:01:10Z</time>
      </trkpt>
      <trkpt lat="41.612241000" lon="1.849255000">
        <ele>164.50</ele>
        <time>2014-03-25T19:01:25Z</time>
      </trkpt>
      <trkpt lat="41.612637000" lon="1.849461000">
        <ele>167.70</ele>
        <time>2014-03-25T19:01:41Z</time>
      </trkpt>
      <trkpt lat="41.612865000" lon="1.849631000">
        <ele>170.80</ele>
        <time>2014-03-25T19:01:52Z</time>
      </trkpt>
      <trkpt lat="41.613141000" lon="1.849873000">
        <ele>173.90</ele>
        <time>2014-03-25T19:02:04Z</time>
      </trkpt>
      <trkpt lat="41.613534000" lon="1.850327000">
        <ele>176.90</ele>
        <time>2014-03-25T19:02:25Z</time>
      </trkpt>
      <trkpt lat="41.613788000" lon="1.850755000">
        <ele>179.30</ele>
        <time>2014-03-25T19:02:43Z</time>
      </trkpt>
      <trkpt lat="41.613855000" lon="1.850886000">
        <ele>180.50</ele>
        <time>2014-03-25T19:02:48Z</time>
      </trkpt>
      <trkpt lat="41.613986000" lon="1.851487000">
        <ele>182.70</ele>
        <time>2014-03-25T19:03:08Z</time>
      </trkpt>
      <trkpt lat="41.614103000" lon="1.851984000">
        <ele>185.80</ele>
        <time>2014-03-25T19:03:26Z</time>
      </trkpt>
      <trkpt lat="41.614146000" lon="1.852048000">
        <ele>186.50</ele>
        <time>2014-03-25T19:03:31Z</time>
      </trkpt>
      <trkpt lat="41.614292000" lon="1.852396000">
        <ele>189.00</ele>
        <time>2014-03-25T19:03:48Z</time>
      </trkpt>
      <trkpt lat="41.614405000" lon="1.852675000">
        <ele>188.10</ele>
        <time>2014-03-25T19:04:00Z</time>
      </trkpt>
      <trkpt lat="41.614478000" lon="1.852693000">
        <ele>184.30</ele>
        <time>2014-03-25T19:04:04Z</time>
      </trkpt>
      <trkpt lat="41.614803000" lon="1.852877000">
        <ele>183.20</ele>
        <time>2014-03-25T19:04:15Z</time>
      </trkpt>
      <trkpt lat="41.615182000" lon="1.853298000">
        <ele>183.30</ele>
        <time>2014-03-25T19:04:34Z</time>
      </trkpt>
      <trkpt lat="41.615422000" lon="1.853613000">
        <ele>183.40</ele>
        <time>2014-03-25T19:04:48Z</time>
      </trkpt>
      <trkpt lat="41.615796000" lon="1.853854000">
        <ele>183.40</ele>
        <time>2014-03-25T19:05:01Z</time>
      </trkpt>
      <trkpt lat="41.616156000" lon="1.854295000">
        <ele>182.60</ele>
        <time>2014-03-25T19:05:14Z</time>
      </trkpt>
      <trkpt lat="41.616479000" lon="1.854687000">
        <ele>182.30</ele>
        <time>2014-03-25T19:05:26Z</time>
      </trkpt>
      <trkpt lat="41.616666000" lon="1.855084000">
        <ele>185.00</ele>
        <time>2014-03-25T19:05:36Z</time>
      </trkpt>
      <trkpt lat="41.616743000" lon="1.855446000">
        <ele>188.00</ele>
        <time>2014-03-25T19:05:46Z</time>
      </trkpt>
      <trkpt lat="41.616926000" lon="1.855801000">
        <ele>190.10</ele>
        <time>2014-03-25T19:05:57Z</time>
      </trkpt>
      <trkpt lat="41.617078000" lon="1.856194000">
        <ele>191.80</ele>
        <time>2014-03-25T19:06:08Z</time>
      </trkpt>
      <trkpt lat="41.617152000" lon="1.856305000">
        <ele>191.80</ele>
        <time>2014-03-25T19:06:11Z</time>
      </trkpt>
      <trkpt lat="41.617149000" lon="1.856366000">
        <ele>193.20</ele>
        <time>2014-03-25T19:06:27Z</time>
      </trkpt>
      <trkpt lat="41.617099000" lon="1.856460000">
        <ele>195.20</ele>
        <time>2014-03-25T19:06:41Z</time>
      </trkpt>
      <trkpt lat="41.617092000" lon="1.856459000">
        <ele>195.20</ele>
        <time>2014-03-25T19:06:47Z</time>
      </trkpt>
      <trkpt lat="41.617098000" lon="1.856515000">
        <ele>195.00</ele>
        <time>2014-03-25T19:06:50Z</time>
      </trkpt>
      <trkpt lat="41.617031000" lon="1.856584000">
        <ele>196.20</ele>
        <time>2014-03-25T19:06:55Z</time>
      </trkpt>
      <trkpt lat="41.617002000" lon="1.856589000">
        <ele>197.10</ele>
        <time>2014-03-25T19:06:57Z</time>
      </trkpt>
      <trkpt lat="41.616916000" lon="1.856639000">
        <ele>198.20</ele>
        <time>2014-03-25T19:07:04Z</time>
      </trkpt>
      <trkpt lat="41.616549000" lon="1.856704000">
        <ele>200.30</ele>
        <time>2014-03-25T19:07:22Z</time>
      </trkpt>
      <trkpt lat="41.616157000" lon="1.856890000">
        <ele>202.10</ele>
        <time>2014-03-25T19:07:40Z</time>
      </trkpt>
      <trkpt lat="41.615968000" lon="1.857099000">
        <ele>205.30</ele>
        <time>2014-03-25T19:07:50Z</time>
      </trkpt>
      <trkpt lat="41.615971000" lon="1.857563000">
        <ele>204.70</ele>
        <time>2014-03-25T19:08:02Z</time>
      </trkpt>
      <trkpt lat="41.616067000" lon="1.857769000">
        <ele>205.60</ele>
        <time>2014-03-25T19:08:08Z</time>
      </trkpt>
      <trkpt lat="41.616000000" lon="1.857996000">
        <ele>209.00</ele>
        <time>2014-03-25T19:08:16Z</time>
      </trkpt>
      <trkpt lat="41.615764000" lon="1.858350000">
        <ele>211.70</ele>
        <time>2014-03-25T19:08:31Z</time>
      </trkpt>
      <trkpt lat="41.615669000" lon="1.858478000">
        <ele>213.10</ele>
        <time>2014-03-25T19:08:37Z</time>
      </trkpt>
      <trkpt lat="41.615476000" lon="1.858761000">
        <ele>216.10</ele>
        <time>2014-03-25T19:08:49Z</time>
      </trkpt>
      <trkpt lat="41.615463000" lon="1.858785000">
        <ele>216.90</ele>
        <time>2014-03-25T19:08:50Z</time>
      </trkpt>
      <trkpt lat="41.615440000" lon="1.858906000">
        <ele>216.90</ele>
        <time>2014-03-25T19:08:55Z</time>
      </trkpt>
      <trkpt lat="41.615397000" lon="1.859282000">
        <ele>216.50</ele>
        <time>2014-03-25T19:09:05Z</time>
      </trkpt>
      <trkpt lat="41.615228000" lon="1.859555000">
        <ele>218.90</ele>
        <time>2014-03-25T19:09:19Z</time>
      </trkpt>
      <trkpt lat="41.615180000" lon="1.859486000">
        <ele>218.70</ele>
        <time>2014-03-25T19:09:23Z</time>
      </trkpt>
      <trkpt lat="41.615157000" lon="1.859448000">
        <ele>219.40</ele>
        <time>2014-03-25T19:09:25Z</time>
      </trkpt>
      <trkpt lat="41.615131000" lon="1.859415000">
        <ele>220.00</ele>
        <time>2014-03-25T19:09:27Z</time>
      </trkpt>
      <trkpt lat="41.615104000" lon="1.859398000">
        <ele>220.10</ele>
        <time>2014-03-25T19:09:29Z</time>
      </trkpt>
      <trkpt lat="41.615090000" lon="1.859311000">
        <ele>220.50</ele>
        <time>2014-03-25T19:09:35Z</time>
      </trkpt>
      <trkpt lat="41.615080000" lon="1.859305000">
        <ele>220.10</ele>
        <time>2014-03-25T19:09:55Z</time>
      </trkpt>
      <trkpt lat="41.615081000" lon="1.859308000">
        <ele>219.90</ele>
        <time>2014-03-25T19:09:58Z</time>
      </trkpt>
      <trkpt lat="41.615102000" lon="1.859389000">
        <ele>219.20</ele>
        <time>2014-03-25T19:10:04Z</time>
      </trkpt>
      <trkpt lat="41.615201000" lon="1.859518000">
        <ele>219.70</ele>
        <time>2014-03-25T19:10:14Z</time>
      </trkpt>
      <trkpt lat="41.615246000" lon="1.859569000">
        <ele>219.50</ele>
        <time>2014-03-25T19:10:18Z</time>
      </trkpt>
      <trkpt lat="41.615315000" lon="1.859517000">
        <ele>218.60</ele>
        <time>2014-03-25T19:10:23Z</time>
      </trkpt>
      <trkpt lat="41.615378000" lon="1.859376000">
        <ele>217.60</ele>
        <time>2014-03-25T19:10:29Z</time>
      </trkpt>
      <trkpt lat="41.615398000" lon="1.858874000">
        <ele>217.60</ele>
        <time>2014-03-25T19:10:41Z</time>
      </trkpt>
      <trkpt lat="41.615353000" lon="1.858573000">
        <ele>220.80</ele>
        <time>2014-03-25T19:10:52Z</time>
      </trkpt>
      <trkpt lat="41.615333000" lon="1.858357000">
        <ele>222.70</ele>
        <time>2014-03-25T19:11:00Z</time>
      </trkpt>
      <trkpt lat="41.615269000" lon="1.858338000">
        <ele>224.70</ele>
        <time>2014-03-25T19:11:04Z</time>
      </trkpt>
      <trkpt lat="41.615063000" lon="1.858569000">
        <ele>228.30</ele>
        <time>2014-03-25T19:11:18Z</time>
      </trkpt>
      <trkpt lat="41.614844000" lon="1.858612000">
        <ele>230.10</ele>
        <time>2014-03-25T19:11:29Z</time>
      </trkpt>
      <trkpt lat="41.614537000" lon="1.858725000">
        <ele>231.70</ele>
        <time>2014-03-25T19:11:45Z</time>
      </trkpt>
      <trkpt lat="41.614354000" lon="1.858809000">
        <ele>232.40</ele>
        <time>2014-03-25T19:11:54Z</time>
      </trkpt>
      <trkpt lat="41.613907000" lon="1.858841000">
        <ele>235.40</ele>
        <time>2014-03-25T19:12:11Z</time>
      </trkpt>
      <trkpt lat="41.613681000" lon="1.858908000">
        <ele>238.80</ele>
        <time>2014-03-25T19:12:22Z</time>
      </trkpt>
      <trkpt lat="41.613636000" lon="1.858917000">
        <ele>239.70</ele>
        <time>2014-03-25T19:12:24Z</time>
      </trkpt>
      <trkpt lat="41.613430000" lon="1.858879000">
        <ele>241.90</ele>
        <time>2014-03-25T19:12:34Z</time>
      </trkpt>
      <trkpt lat="41.613039000" lon="1.859054000">
        <ele>244.10</ele>
        <time>2014-03-25T19:12:52Z</time>
      </trkpt>
      <trkpt lat="41.612870000" lon="1.859142000">
        <ele>247.30</ele>
        <time>2014-03-25T19:13:01Z</time>
      </trkpt>
      <trkpt lat="41.612690000" lon="1.859238000">
        <ele>250.50</ele>
        <time>2014-03-25T19:13:12Z</time>
      </trkpt>
      <trkpt lat="41.612483000" lon="1.859343000">
        <ele>253.50</ele>
        <time>2014-03-25T19:13:23Z</time>
      </trkpt>
      <trkpt lat="41.612118000" lon="1.859344000">
        <ele>253.70</ele>
        <time>2014-03-25T19:13:38Z</time>
      </trkpt>
      <trkpt lat="41.611794000" lon="1.859307000">
        <ele>252.40</ele>
        <time>2014-03-25T19:13:46Z</time>
      </trkpt>
      <trkpt lat="41.611596000" lon="1.859367000">
        <ele>253.00</ele>
        <time>2014-03-25T19:13:51Z</time>
      </trkpt>
      <trkpt lat="41.611136000" lon="1.859691000">
        <ele>254.50</ele>
        <time>2014-03-25T19:14:06Z</time>
      </trkpt>
      <trkpt lat="41.610717000" lon="1.860067000">
        <ele>256.40</ele>
        <time>2014-03-25T19:14:21Z</time>
      </trkpt>
      <trkpt lat="41.610267000" lon="1.860210000">
        <ele>258.70</ele>
        <time>2014-03-25T19:14:36Z</time>
      </trkpt>
      <trkpt lat="41.609914000" lon="1.860316000">
        <ele>262.20</ele>
        <time>2014-03-25T19:14:50Z</time>
      </trkpt>
      <trkpt lat="41.609855000" lon="1.860299000">
        <ele>262.10</ele>
        <time>2014-03-25T19:14:52Z</time>
      </trkpt>
      <trkpt lat="41.609567000" lon="1.860570000">
        <ele>264.80</ele>
        <time>2014-03-25T19:15:06Z</time>
      </trkpt>
      <trkpt lat="41.609411000" lon="1.860678000">
        <ele>266.60</ele>
        <time>2014-03-25T19:15:19Z</time>
      </trkpt>
      <trkpt lat="41.609388000" lon="1.860720000">
        <ele>266.80</ele>
        <time>2014-03-25T19:15:24Z</time>
      </trkpt>
      <trkpt lat="41.609390000" lon="1.860899000">
        <ele>267.70</ele>
        <time>2014-03-25T19:15:36Z</time>
      </trkpt>
      <trkpt lat="41.609341000" lon="1.861307000">
        <ele>267.70</ele>
        <time>2014-03-25T19:15:53Z</time>
      </trkpt>
      <trkpt lat="41.609316000" lon="1.861418000">
        <ele>266.70</ele>
        <time>2014-03-25T19:15:55Z</time>
      </trkpt>
      <trkpt lat="41.609240000" lon="1.861918000">
        <ele>266.00</ele>
        <time>2014-03-25T19:16:04Z</time>
      </trkpt>
      <trkpt lat="41.609189000" lon="1.862077000">
        <ele>265.40</ele>
        <time>2014-03-25T19:16:07Z</time>
      </trkpt>
      <trkpt lat="41.609228000" lon="1.862372000">
        <ele>264.60</ele>
        <time>2014-03-25T19:16:12Z</time>
      </trkpt>
      <trkpt lat="41.609279000" lon="1.862479000">
        <ele>264.60</ele>
        <time>2014-03-25T19:16:14Z</time>
      </trkpt>
      <trkpt lat="41.609286000" lon="1.862678000">
        <ele>264.10</ele>
        <time>2014-03-25T19:16:17Z</time>
      </trkpt>
      <trkpt lat="41.609327000" lon="1.862921000">
        <ele>264.00</ele>
        <time>2014-03-25T19:16:21Z</time>
      </trkpt>
      <trkpt lat="41.609340000" lon="1.863083000">
        <ele>265.30</ele>
        <time>2014-03-25T19:16:24Z</time>
      </trkpt>
      <trkpt lat="41.609305000" lon="1.863663000">
        <ele>265.90</ele>
        <time>2014-03-25T19:16:38Z</time>
      </trkpt>
      <trkpt lat="41.609293000" lon="1.863689000">
        <ele>265.90</ele>
        <time>2014-03-25T19:16:39Z</time>
      </trkpt>
      <trkpt lat="41.609273000" lon="1.863773000">
        <ele>266.60</ele>
        <time>2014-03-25T19:16:49Z</time>
      </trkpt>
      <trkpt lat="41.609284000" lon="1.863813000">
        <ele>267.20</ele>
        <time>2014-03-25T19:17:00Z</time>
      </trkpt>
      <trkpt lat="41.609290000" lon="1.863877000">
        <ele>267.10</ele>
        <time>2014-03-25T19:17:04Z</time>
      </trkpt>
      <trkpt lat="41.609162000" lon="1.864183000">
        <ele>265.60</ele>
        <time>2014-03-25T19:17:16Z</time>
      </trkpt>
      <trkpt lat="41.609149000" lon="1.864206000">
        <ele>265.40</ele>
        <time>2014-03-25T19:17:17Z</time>
      </trkpt>
      <trkpt lat="41.609097000" lon="1.864222000">
        <ele>265.40</ele>
        <time>2014-03-25T19:17:21Z</time>
      </trkpt>
      <trkpt lat="41.609052000" lon="1.864178000">
        <ele>265.30</ele>
        <time>2014-03-25T19:17:27Z</time>
      </trkpt>
      <trkpt lat="41.609042000" lon="1.864235000">
        <ele>265.40</ele>
        <time>2014-03-25T19:17:35Z</time>
      </trkpt>
      <trkpt lat="41.609064000" lon="1.864254000">
        <ele>265.40</ele>
        <time>2014-03-25T19:17:37Z</time>
      </trkpt>
      <trkpt lat="41.609045000" lon="1.864416000">
        <ele>264.00</ele>
        <time>2014-03-25T19:17:47Z</time>
      </trkpt>
      <trkpt lat="41.608874000" lon="1.864627000">
        <ele>260.40</ele>
        <time>2014-03-25T19:17:56Z</time>
      </trkpt>
      <trkpt lat="41.608821000" lon="1.864683000">
        <ele>258.80</ele>
        <time>2014-03-25T19:17:59Z</time>
      </trkpt>
      <trkpt lat="41.608721000" lon="1.864684000">
        <ele>255.50</ele>
        <time>2014-03-25T19:18:04Z</time>
      </trkpt>
      <trkpt lat="41.608703000" lon="1.864688000">
        <ele>255.40</ele>
        <time>2014-03-25T19:18:05Z</time>
      </trkpt>
      <trkpt lat="41.608662000" lon="1.864772000">
        <ele>253.60</ele>
        <time>2014-03-25T19:18:10Z</time>
      </trkpt>
      <trkpt lat="41.608618000" lon="1.864785000">
        <ele>252.20</ele>
        <time>2014-03-25T19:18:15Z</time>
      </trkpt>
      <trkpt lat="41.608559000" lon="1.864552000">
        <ele>249.10</ele>
        <time>2014-03-25T19:18:20Z</time>
      </trkpt>
      <trkpt lat="41.608525000" lon="1.864433000">
        <ele>248.30</ele>
        <time>2014-03-25T19:18:22Z</time>
      </trkpt>
      <trkpt lat="41.608441000" lon="1.864401000">
        <ele>248.30</ele>
        <time>2014-03-25T19:18:25Z</time>
      </trkpt>
      <trkpt lat="41.608382000" lon="1.864404000">
        <ele>247.90</ele>
        <time>2014-03-25T19:18:27Z</time>
      </trkpt>
      <trkpt lat="41.608040000" lon="1.864533000">
        <ele>248.50</ele>
        <time>2014-03-25T19:18:40Z</time>
      </trkpt>
      <trkpt lat="41.607711000" lon="1.864846000">
        <ele>246.30</ele>
        <time>2014-03-25T19:18:52Z</time>
      </trkpt>
      <trkpt lat="41.607506000" lon="1.865011000">
        <ele>243.20</ele>
        <time>2014-03-25T19:18:56Z</time>
      </trkpt>
      <trkpt lat="41.607145000" lon="1.864985000">
        <ele>240.10</ele>
        <time>2014-03-25T19:19:03Z</time>
      </trkpt>
      <trkpt lat="41.607080000" lon="1.864869000">
        <ele>240.40</ele>
        <time>2014-03-25T19:19:05Z</time>
      </trkpt>
      <trkpt lat="41.606893000" lon="1.864949000">
        <ele>237.80</ele>
        <time>2014-03-25T19:19:09Z</time>
      </trkpt>
      <trkpt lat="41.606847000" lon="1.865109000">
        <ele>237.30</ele>
        <time>2014-03-25T19:19:11Z</time>
      </trkpt>
      <trkpt lat="41.606809000" lon="1.865366000">
        <ele>236.20</ele>
        <time>2014-03-25T19:19:14Z</time>
      </trkpt>
      <trkpt lat="41.606772000" lon="1.865527000">
        <ele>235.90</ele>
        <time>2014-03-25T19:19:16Z</time>
      </trkpt>
      <trkpt lat="41.606766000" lon="1.865847000">
        <ele>234.10</ele>
        <time>2014-03-25T19:19:20Z</time>
      </trkpt>
      <trkpt lat="41.606640000" lon="1.866122000">
        <ele>230.30</ele>
        <time>2014-03-25T19:19:24Z</time>
      </trkpt>
      <trkpt lat="41.606535000" lon="1.866251000">
        <ele>228.00</ele>
        <time>2014-03-25T19:19:26Z</time>
      </trkpt>
      <trkpt lat="41.606358000" lon="1.866677000">
        <ele>224.30</ele>
        <time>2014-03-25T19:19:31Z</time>
      </trkpt>
      <trkpt lat="41.606337000" lon="1.866773000">
        <ele>223.80</ele>
        <time>2014-03-25T19:19:32Z</time>
      </trkpt>
      <trkpt lat="41.606065000" lon="1.867116000">
        <ele>221.10</ele>
        <time>2014-03-25T19:19:37Z</time>
      </trkpt>
      <trkpt lat="41.605962000" lon="1.867270000">
        <ele>220.20</ele>
        <time>2014-03-25T19:19:39Z</time>
      </trkpt>
      <trkpt lat="41.605871000" lon="1.867609000">
        <ele>218.00</ele>
        <time>2014-03-25T19:19:43Z</time>
      </trkpt>
      <trkpt lat="41.605881000" lon="1.867781000">
        <ele>216.70</ele>
        <time>2014-03-25T19:19:45Z</time>
      </trkpt>
      <trkpt lat="41.605958000" lon="1.868182000">
        <ele>211.10</ele>
        <time>2014-03-25T19:19:49Z</time>
      </trkpt>
      <trkpt lat="41.605986000" lon="1.868289000">
        <ele>210.90</ele>
        <time>2014-03-25T19:19:50Z</time>
      </trkpt>
      <trkpt lat="41.606035000" lon="1.868696000">
        <ele>210.10</ele>
        <time>2014-03-25T19:19:54Z</time>
      </trkpt>
      <trkpt lat="41.605992000" lon="1.869137000">
        <ele>207.20</ele>
        <time>2014-03-25T19:19:58Z</time>
      </trkpt>
      <trkpt lat="41.605981000" lon="1.869467000">
        <ele>205.90</ele>
        <time>2014-03-25T19:20:01Z</time>
      </trkpt>
      <trkpt lat="41.605973000" lon="1.869576000">
        <ele>205.70</ele>
        <time>2014-03-25T19:20:02Z</time>
      </trkpt>
      <trkpt lat="41.605866000" lon="1.869914000">
        <ele>203.80</ele>
        <time>2014-03-25T19:20:06Z</time>
      </trkpt>
      <trkpt lat="41.605894000" lon="1.870087000">
        <ele>202.70</ele>
        <time>2014-03-25T19:20:08Z</time>
      </trkpt>
      <trkpt lat="41.605902000" lon="1.870154000">
        <ele>202.30</ele>
        <time>2014-03-25T19:20:09Z</time>
      </trkpt>
      <trkpt lat="41.605732000" lon="1.870365000">
        <ele>203.10</ele>
        <time>2014-03-25T19:20:14Z</time>
      </trkpt>
      <trkpt lat="41.605678000" lon="1.870459000">
        <ele>204.00</ele>
        <time>2014-03-25T19:20:16Z</time>
      </trkpt>
      <trkpt lat="41.605202000" lon="1.871001000">
        <ele>204.30</ele>
        <time>2014-03-25T19:20:33Z</time>
      </trkpt>
      <trkpt lat="41.605048000" lon="1.871043000">
        <ele>202.90</ele>
        <time>2014-03-25T19:20:36Z</time>
      </trkpt>
      <trkpt lat="41.604688000" lon="1.871057000">
        <ele>200.60</ele>
        <time>2014-03-25T19:20:46Z</time>
      </trkpt>
      <trkpt lat="41.604607000" lon="1.871115000">
        <ele>200.30</ele>
        <time>2014-03-25T19:20:51Z</time>
      </trkpt>
      <trkpt lat="41.604604000" lon="1.871169000">
        <ele>200.20</ele>
        <time>2014-03-25T19:20:53Z</time>
      </trkpt>
      <trkpt lat="41.604628000" lon="1.871266000">
        <ele>200.70</ele>
        <time>2014-03-25T19:20:57Z</time>
      </trkpt>
      <trkpt lat="41.604648000" lon="1.871305000">
        <ele>200.80</ele>
        <time>2014-03-25T19:20:59Z</time>
      </trkpt>
      <trkpt lat="41.604757000" lon="1.871498000">
        <ele>198.00</ele>
        <time>2014-03-25T19:21:04Z</time>
      </trkpt>
      <trkpt lat="41.604853000" lon="1.871603000">
        <ele>194.90</ele>
        <time>2014-03-25T19:21:07Z</time>
      </trkpt>
      <trkpt lat="41.604955000" lon="1.871859000">
        <ele>194.30</ele>
        <time>2014-03-25T19:21:11Z</time>
      </trkpt>
      <trkpt lat="41.605110000" lon="1.872031000">
        <ele>194.80</ele>
        <time>2014-03-25T19:21:16Z</time>
      </trkpt>
      <trkpt lat="41.605100000" lon="1.872268000">
        <ele>195.60</ele>
        <time>2014-03-25T19:21:23Z</time>
      </trkpt>
      <trkpt lat="41.604929000" lon="1.872577000">
        <ele>196.50</ele>
        <time>2014-03-25T19:21:32Z</time>
      </trkpt>
      <trkpt lat="41.604906000" lon="1.872930000">
        <ele>198.60</ele>
        <time>2014-03-25T19:21:43Z</time>
      </trkpt>
      <trkpt lat="41.604870000" lon="1.872977000">
        <ele>198.80</ele>
        <time>2014-03-25T19:21:45Z</time>
      </trkpt>
      <trkpt lat="41.604730000" lon="1.873219000">
        <ele>202.20</ele>
        <time>2014-03-25T19:21:55Z</time>
      </trkpt>
      <trkpt lat="41.604737000" lon="1.873243000">
        <ele>202.40</ele>
        <time>2014-03-25T19:21:56Z</time>
      </trkpt>
      <trkpt lat="41.604818000" lon="1.873433000">
        <ele>205.40</ele>
        <time>2014-03-25T19:22:04Z</time>
      </trkpt>
      <trkpt lat="41.604820000" lon="1.873479000">
        <ele>206.20</ele>
        <time>2014-03-25T19:22:07Z</time>
      </trkpt>
      <trkpt lat="41.604564000" lon="1.873733000">
        <ele>208.50</ele>
        <time>2014-03-25T19:22:22Z</time>
      </trkpt>
      <trkpt lat="41.604345000" lon="1.874021000">
        <ele>210.10</ele>
        <time>2014-03-25T19:22:35Z</time>
      </trkpt>
      <trkpt lat="41.603946000" lon="1.874165000">
        <ele>212.00</ele>
        <time>2014-03-25T19:22:51Z</time>
      </trkpt>
      <trkpt lat="41.603894000" lon="1.874208000">
        <ele>212.60</ele>
        <time>2014-03-25T19:22:54Z</time>
      </trkpt>
      <trkpt lat="41.603624000" lon="1.874557000">
        <ele>215.90</ele>
        <time>2014-03-25T19:23:07Z</time>
      </trkpt>
      <trkpt lat="41.603396000" lon="1.875173000">
        <ele>218.20</ele>
        <time>2014-03-25T19:23:24Z</time>
      </trkpt>
      <trkpt lat="41.603303000" lon="1.875413000">
        <ele>217.30</ele>
        <time>2014-03-25T19:23:30Z</time>
      </trkpt>
      <trkpt lat="41.603382000" lon="1.876007000">
        <ele>217.50</ele>
        <time>2014-03-25T19:23:40Z</time>
      </trkpt>
      <trkpt lat="41.603453000" lon="1.876262000">
        <ele>218.00</ele>
        <time>2014-03-25T19:23:45Z</time>
      </trkpt>
      <trkpt lat="41.603366000" lon="1.876553000">
        <ele>220.00</ele>
        <time>2014-03-25T19:23:52Z</time>
      </trkpt>
      <trkpt lat="41.603483000" lon="1.877167000">
        <ele>220.80</ele>
        <time>2014-03-25T19:24:05Z</time>
      </trkpt>
      <trkpt lat="41.603835000" lon="1.877902000">
        <ele>222.00</ele>
        <time>2014-03-25T19:24:22Z</time>
      </trkpt>
      <trkpt lat="41.603945000" lon="1.878854000">
        <ele>224.10</ele>
        <time>2014-03-25T19:24:41Z</time>
      </trkpt>
      <trkpt lat="41.604083000" lon="1.879406000">
        <ele>224.90</ele>
        <time>2014-03-25T19:24:53Z</time>
      </trkpt>
      <trkpt lat="41.604113000" lon="1.879601000">
        <ele>224.80</ele>
        <time>2014-03-25T19:24:57Z</time>
      </trkpt>
      <trkpt lat="41.604126000" lon="1.880203000">
        <ele>224.00</ele>
        <time>2014-03-25T19:25:10Z</time>
      </trkpt>
      <trkpt lat="41.604184000" lon="1.880637000">
        <ele>223.20</ele>
        <time>2014-03-25T19:25:18Z</time>
      </trkpt>
      <trkpt lat="41.604420000" lon="1.881426000">
        <ele>223.20</ele>
        <time>2014-03-25T19:25:31Z</time>
      </trkpt>
      <trkpt lat="41.604554000" lon="1.881997000">
        <ele>222.90</ele>
        <time>2014-03-25T19:25:40Z</time>
      </trkpt>
      <trkpt lat="41.604606000" lon="1.882166000">
        <ele>222.70</ele>
        <time>2014-03-25T19:25:43Z</time>
      </trkpt>
      <trkpt lat="41.604629000" lon="1.882673000">
        <ele>226.00</ele>
        <time>2014-03-25T19:25:53Z</time>
      </trkpt>
      <trkpt lat="41.604641000" lon="1.882708000">
        <ele>226.30</ele>
        <time>2014-03-25T19:25:54Z</time>
      </trkpt>
      <trkpt lat="41.604661000" lon="1.883000000">
        <ele>229.60</ele>
        <time>2014-03-25T19:26:01Z</time>
      </trkpt>
      <trkpt lat="41.604599000" lon="1.883736000">
        <ele>231.90</ele>
        <time>2014-03-25T19:26:17Z</time>
      </trkpt>
      <trkpt lat="41.604492000" lon="1.884193000">
        <ele>235.10</ele>
        <time>2014-03-25T19:26:29Z</time>
      </trkpt>
      <trkpt lat="41.604375000" lon="1.884409000">
        <ele>238.20</ele>
        <time>2014-03-25T19:26:37Z</time>
      </trkpt>
      <trkpt lat="41.604158000" lon="1.884783000">
        <ele>241.40</ele>
        <time>2014-03-25T19:26:50Z</time>
      </trkpt>
      <trkpt lat="41.604146000" lon="1.885078000">
        <ele>244.60</ele>
        <time>2014-03-25T19:26:59Z</time>
      </trkpt>
      <trkpt lat="41.604379000" lon="1.885534000">
        <ele>245.10</ele>
        <time>2014-03-25T19:27:12Z</time>
      </trkpt>
      <trkpt lat="41.604380000" lon="1.886102000">
        <ele>246.00</ele>
        <time>2014-03-25T19:27:24Z</time>
      </trkpt>
      <trkpt lat="41.604340000" lon="1.886197000">
        <ele>246.10</ele>
        <time>2014-03-25T19:27:26Z</time>
      </trkpt>
      <trkpt lat="41.604349000" lon="1.886398000">
        <ele>247.00</ele>
        <time>2014-03-25T19:27:30Z</time>
      </trkpt>
      <trkpt lat="41.604300000" lon="1.887081000">
        <ele>246.10</ele>
        <time>2014-03-25T19:27:43Z</time>
      </trkpt>
      <trkpt lat="41.604244000" lon="1.887725000">
        <ele>246.60</ele>
        <time>2014-03-25T19:27:56Z</time>
      </trkpt>
      <trkpt lat="41.604202000" lon="1.888109000">
        <ele>246.10</ele>
        <time>2014-03-25T19:28:02Z</time>
      </trkpt>
      <trkpt lat="41.604106000" lon="1.888709000">
        <ele>248.30</ele>
        <time>2014-03-25T19:28:14Z</time>
      </trkpt>
      <trkpt lat="41.603798000" lon="1.888989000">
        <ele>251.30</ele>
        <time>2014-03-25T19:28:26Z</time>
      </trkpt>
      <trkpt lat="41.603699000" lon="1.889086000">
        <ele>253.00</ele>
        <time>2014-03-25T19:28:30Z</time>
      </trkpt>
      <trkpt lat="41.603258000" lon="1.889690000">
        <ele>254.30</ele>
        <time>2014-03-25T19:28:49Z</time>
      </trkpt>
      <trkpt lat="41.603052000" lon="1.890071000">
        <ele>257.40</ele>
        <time>2014-03-25T19:28:59Z</time>
      </trkpt>
      <trkpt lat="41.602879000" lon="1.890770000">
        <ele>260.00</ele>
        <time>2014-03-25T19:29:15Z</time>
      </trkpt>
      <trkpt lat="41.602821000" lon="1.891560000">
        <ele>259.70</ele>
        <time>2014-03-25T19:29:31Z</time>
      </trkpt>
      <trkpt lat="41.602662000" lon="1.892262000">
        <ele>262.80</ele>
        <time>2014-03-25T19:29:47Z</time>
      </trkpt>
      <trkpt lat="41.602442000" lon="1.892828000">
        <ele>265.80</ele>
        <time>2014-03-25T19:30:03Z</time>
      </trkpt>
      <trkpt lat="41.602249000" lon="1.893081000">
        <ele>268.80</ele>
        <time>2014-03-25T19:30:13Z</time>
      </trkpt>
      <trkpt lat="41.602034000" lon="1.893381000">
        <ele>271.90</ele>
        <time>2014-03-25T19:30:25Z</time>
      </trkpt>
      <trkpt lat="41.601816000" lon="1.893646000">
        <ele>275.00</ele>
        <time>2014-03-25T19:30:36Z</time>
      </trkpt>
      <trkpt lat="41.601596000" lon="1.893911000">
        <ele>278.20</ele>
        <time>2014-03-25T19:30:48Z</time>
      </trkpt>
      <trkpt lat="41.601552000" lon="1.894038000">
        <ele>279.20</ele>
        <time>2014-03-25T19:30:53Z</time>
      </trkpt>
      <trkpt lat="41.601633000" lon="1.894084000">
        <ele>281.20</ele>
        <time>2014-03-25T19:30:58Z</time>
      </trkpt>
      <trkpt lat="41.601687000" lon="1.894065000">
        <ele>281.30</ele>
        <time>2014-03-25T19:31:01Z</time>
      </trkpt>
      <trkpt lat="41.601773000" lon="1.894339000">
        <ele>281.80</ele>
        <time>2014-03-25T19:31:13Z</time>
      </trkpt>
      <trkpt lat="41.601982000" lon="1.894579000">
        <ele>283.80</ele>
        <time>2014-03-25T19:31:26Z</time>
      </trkpt>
      <trkpt lat="41.602142000" lon="1.895037000">
        <ele>286.50</ele>
        <time>2014-03-25T19:31:42Z</time>
      </trkpt>
      <trkpt lat="41.602387000" lon="1.895510000">
        <ele>289.60</ele>
        <time>2014-03-25T19:31:59Z</time>
      </trkpt>
      <trkpt lat="41.602902000" lon="1.895936000">
        <ele>291.50</ele>
        <time>2014-03-25T19:32:20Z</time>
      </trkpt>
      <trkpt lat="41.602950000" lon="1.896019000">
        <ele>291.10</ele>
        <time>2014-03-25T19:32:22Z</time>
      </trkpt>
      <trkpt lat="41.602998000" lon="1.896344000">
        <ele>289.50</ele>
        <time>2014-03-25T19:32:27Z</time>
      </trkpt>
      <trkpt lat="41.603025000" lon="1.896525000">
        <ele>289.10</ele>
        <time>2014-03-25T19:32:30Z</time>
      </trkpt>
      <trkpt lat="41.603076000" lon="1.896688000">
        <ele>289.60</ele>
        <time>2014-03-25T19:32:33Z</time>
      </trkpt>
      <trkpt lat="41.603043000" lon="1.896964000">
        <ele>289.10</ele>
        <time>2014-03-25T19:32:36Z</time>
      </trkpt>
      <trkpt lat="41.602920000" lon="1.897182000">
        <ele>291.30</ele>
        <time>2014-03-25T19:32:41Z</time>
      </trkpt>
      <trkpt lat="41.602614000" lon="1.897355000">
        <ele>294.80</ele>
        <time>2014-03-25T19:32:52Z</time>
      </trkpt>
      <trkpt lat="41.602391000" lon="1.897491000">
        <ele>296.40</ele>
        <time>2014-03-25T19:33:01Z</time>
      </trkpt>
      <trkpt lat="41.602160000" lon="1.897480000">
        <ele>299.70</ele>
        <time>2014-03-25T19:33:11Z</time>
      </trkpt>
      <trkpt lat="41.601797000" lon="1.897660000">
        <ele>302.30</ele>
        <time>2014-03-25T19:33:25Z</time>
      </trkpt>
      <trkpt lat="41.601470000" lon="1.897937000">
        <ele>305.20</ele>
        <time>2014-03-25T19:33:40Z</time>
      </trkpt>
      <trkpt lat="41.601172000" lon="1.898131000">
        <ele>308.30</ele>
        <time>2014-03-25T19:33:52Z</time>
      </trkpt>
      <trkpt lat="41.601086000" lon="1.898182000">
        <ele>308.40</ele>
        <time>2014-03-25T19:33:56Z</time>
      </trkpt>
      <trkpt lat="41.601016000" lon="1.898291000">
        <ele>311.00</ele>
        <time>2014-03-25T19:34:01Z</time>
      </trkpt>
      <trkpt lat="41.601012000" lon="1.898335000">
        <ele>311.30</ele>
        <time>2014-03-25T19:34:03Z</time>
      </trkpt>
      <trkpt lat="41.600795000" lon="1.898540000">
        <ele>311.80</ele>
        <time>2014-03-25T19:34:14Z</time>
      </trkpt>
      <trkpt lat="41.600755000" lon="1.898610000">
        <ele>311.90</ele>
        <time>2014-03-25T19:34:17Z</time>
      </trkpt>
      <trkpt lat="41.600683000" lon="1.898696000">
        <ele>311.00</ele>
        <time>2014-03-25T19:34:21Z</time>
      </trkpt>
      <trkpt lat="41.600573000" lon="1.898962000">
        <ele>309.40</ele>
        <time>2014-03-25T19:34:26Z</time>
      </trkpt>
      <trkpt lat="41.600401000" lon="1.899124000">
        <ele>309.50</ele>
        <time>2014-03-25T19:34:31Z</time>
      </trkpt>
      <trkpt lat="41.600258000" lon="1.899171000">
        <ele>310.30</ele>
        <time>2014-03-25T19:34:35Z</time>
      </trkpt>
      <trkpt lat="41.600101000" lon="1.899328000">
        <ele>309.10</ele>
        <time>2014-03-25T19:34:40Z</time>
      </trkpt>
      <trkpt lat="41.600060000" lon="1.899365000">
        <ele>308.90</ele>
        <time>2014-03-25T19:34:41Z</time>
      </trkpt>
      <trkpt lat="41.599940000" lon="1.899445000">
        <ele>307.80</ele>
        <time>2014-03-25T19:34:44Z</time>
      </trkpt>
      <trkpt lat="41.599822000" lon="1.899684000">
        <ele>305.90</ele>
        <time>2014-03-25T19:34:48Z</time>
      </trkpt>
      <trkpt lat="41.599664000" lon="1.899896000">
        <ele>304.20</ele>
        <time>2014-03-25T19:34:52Z</time>
      </trkpt>
      <trkpt lat="41.599599000" lon="1.900024000">
        <ele>303.50</ele>
        <time>2014-03-25T19:34:54Z</time>
      </trkpt>
      <trkpt lat="41.599538000" lon="1.900174000">
        <ele>302.50</ele>
        <time>2014-03-25T19:34:56Z</time>
      </trkpt>
      <trkpt lat="41.599393000" lon="1.900470000">
        <ele>300.40</ele>
        <time>2014-03-25T19:35:00Z</time>
      </trkpt>
      <trkpt lat="41.599414000" lon="1.900729000">
        <ele>300.50</ele>
        <time>2014-03-25T19:35:04Z</time>
      </trkpt>
      <trkpt lat="41.599410000" lon="1.901165000">
        <ele>299.90</ele>
        <time>2014-03-25T19:35:13Z</time>
      </trkpt>
      <trkpt lat="41.599078000" lon="1.901134000">
        <ele>300.70</ele>
        <time>2014-03-25T19:35:22Z</time>
      </trkpt>
      <trkpt lat="41.599021000" lon="1.901052000">
        <ele>300.50</ele>
        <time>2014-03-25T19:35:24Z</time>
      </trkpt>
      <trkpt lat="41.598899000" lon="1.900869000">
        <ele>299.50</ele>
        <time>2014-03-25T19:35:28Z</time>
      </trkpt>
      <trkpt lat="41.598743000" lon="1.900530000">
        <ele>298.80</ele>
        <time>2014-03-25T19:35:34Z</time>
      </trkpt>
      <trkpt lat="41.598603000" lon="1.900318000">
        <ele>298.80</ele>
        <time>2014-03-25T19:35:39Z</time>
      </trkpt>
      <trkpt lat="41.598225000" lon="1.900108000">
        <ele>300.90</ele>
        <time>2014-03-25T19:35:50Z</time>
      </trkpt>
      <trkpt lat="41.597948000" lon="1.900114000">
        <ele>299.30</ele>
        <time>2014-03-25T19:35:56Z</time>
      </trkpt>
      <trkpt lat="41.597791000" lon="1.900456000">
        <ele>299.90</ele>
        <time>2014-03-25T19:36:04Z</time>
      </trkpt>
      <trkpt lat="41.597792000" lon="1.900715000">
        <ele>301.40</ele>
        <time>2014-03-25T19:36:10Z</time>
      </trkpt>
      <trkpt lat="41.598088000" lon="1.901126000">
        <ele>302.10</ele>
        <time>2014-03-25T19:36:23Z</time>
      </trkpt>
      <trkpt lat="41.598271000" lon="1.901324000">
        <ele>303.70</ele>
        <time>2014-03-25T19:36:33Z</time>
      </trkpt>
      <trkpt lat="41.598493000" lon="1.901468000">
        <ele>304.70</ele>
        <time>2014-03-25T19:36:43Z</time>
      </trkpt>
      <trkpt lat="41.598659000" lon="1.901560000">
        <ele>305.10</ele>
        <time>2014-03-25T19:36:50Z</time>
      </trkpt>
      <trkpt lat="41.598727000" lon="1.901659000">
        <ele>306.20</ele>
        <time>2014-03-25T19:36:55Z</time>
      </trkpt>
      <trkpt lat="41.598738000" lon="1.901793000">
        <ele>307.80</ele>
        <time>2014-03-25T19:36:59Z</time>
      </trkpt>
      <trkpt lat="41.598787000" lon="1.901869000">
        <ele>307.50</ele>
        <time>2014-03-25T19:37:02Z</time>
      </trkpt>
      <trkpt lat="41.598959000" lon="1.902199000">
        <ele>308.60</ele>
        <time>2014-03-25T19:37:14Z</time>
      </trkpt>
      <trkpt lat="41.599139000" lon="1.902530000">
        <ele>310.20</ele>
        <time>2014-03-25T19:37:27Z</time>
      </trkpt>
      <trkpt lat="41.599220000" lon="1.902542000">
        <ele>309.60</ele>
        <time>2014-03-25T19:37:31Z</time>
      </trkpt>
      <trkpt lat="41.599357000" lon="1.902416000">
        <ele>310.10</ele>
        <time>2014-03-25T19:37:39Z</time>
      </trkpt>
      <trkpt lat="41.599391000" lon="1.902390000">
        <ele>310.60</ele>
        <time>2014-03-25T19:37:41Z</time>
      </trkpt>
      <trkpt lat="41.599452000" lon="1.902455000">
        <ele>311.40</ele>
        <time>2014-03-25T19:37:47Z</time>
      </trkpt>
      <trkpt lat="41.599360000" lon="1.902658000">
        <ele>313.50</ele>
        <time>2014-03-25T19:37:56Z</time>
      </trkpt>
      <trkpt lat="41.599393000" lon="1.902732000">
        <ele>313.50</ele>
        <time>2014-03-25T19:38:01Z</time>
      </trkpt>
      <trkpt lat="41.599446000" lon="1.902721000">
        <ele>313.90</ele>
        <time>2014-03-25T19:38:05Z</time>
      </trkpt>
      <trkpt lat="41.599496000" lon="1.902724000">
        <ele>314.30</ele>
        <time>2014-03-25T19:38:18Z</time>
      </trkpt>
      <trkpt lat="41.599496000" lon="1.902711000">
        <ele>314.70</ele>
        <time>2014-03-25T19:38:41Z</time>
      </trkpt>
      <trkpt lat="41.599434000" lon="1.902696000">
        <ele>314.60</ele>
        <time>2014-03-25T19:38:45Z</time>
      </trkpt>
      <trkpt lat="41.599378000" lon="1.902683000">
        <ele>313.20</ele>
        <time>2014-03-25T19:38:49Z</time>
      </trkpt>
      <trkpt lat="41.599364000" lon="1.902637000">
        <ele>312.30</ele>
        <time>2014-03-25T19:39:02Z</time>
      </trkpt>
      <trkpt lat="41.599367000" lon="1.902639000">
        <ele>312.00</ele>
        <time>2014-03-25T19:39:06Z</time>
      </trkpt>
      <trkpt lat="41.599419000" lon="1.902687000">
        <ele>312.70</ele>
        <time>2014-03-25T19:39:10Z</time>
      </trkpt>
      <trkpt lat="41.599618000" lon="1.902814000">
        <ele>315.60</ele>
        <time>2014-03-25T19:39:23Z</time>
      </trkpt>
      <trkpt lat="41.599764000" lon="1.903051000">
        <ele>317.40</ele>
        <time>2014-03-25T19:39:37Z</time>
      </trkpt>
      <trkpt lat="41.599751000" lon="1.903037000">
        <ele>317.40</ele>
        <time>2014-03-25T19:39:48Z</time>
      </trkpt>
      <trkpt lat="41.599734000" lon="1.903020000">
        <ele>316.90</ele>
        <time>2014-03-25T19:39:52Z</time>
      </trkpt>
      <trkpt lat="41.599726000" lon="1.902980000">
        <ele>316.50</ele>
        <time>2014-03-25T19:40:08Z</time>
      </trkpt>
      <trkpt lat="41.599726000" lon="1.902980000">
        <ele>316.60</ele>
        <time>2014-03-25T19:40:17Z</time>
      </trkpt>
      <trkpt lat="41.599776000" lon="1.903056000">
        <ele>317.50</ele>
        <time>2014-03-25T19:40:29Z</time>
      </trkpt>
      <trkpt lat="41.599776000" lon="1.903044000">
        <ele>317.00</ele>
        <time>2014-03-25T19:40:34Z</time>
      </trkpt>
      <trkpt lat="41.599744000" lon="1.902980000">
        <ele>316.10</ele>
        <time>2014-03-25T19:40:38Z</time>
      </trkpt>
      <trkpt lat="41.599742000" lon="1.902967000">
        <ele>316.40</ele>
        <time>2014-03-25T19:40:48Z</time>
      </trkpt>
      <trkpt lat="41.599743000" lon="1.902967000">
        <ele>316.00</ele>
        <time>2014-03-25T19:40:52Z</time>
      </trkpt>
      <trkpt lat="41.599772000" lon="1.903031000">
        <ele>316.30</ele>
        <time>2014-03-25T19:40:57Z</time>
      </trkpt>
      <trkpt lat="41.599884000" lon="1.903280000">
        <ele>317.70</ele>
        <time>2014-03-25T19:41:09Z</time>
      </trkpt>
      <trkpt lat="41.599958000" lon="1.903459000">
        <ele>319.30</ele>
        <time>2014-03-25T19:41:16Z</time>
      </trkpt>
      <trkpt lat="41.600124000" lon="1.903876000">
        <ele>320.30</ele>
        <time>2014-03-25T19:41:32Z</time>
      </trkpt>
      <trkpt lat="41.600145000" lon="1.903949000">
        <ele>321.10</ele>
        <time>2014-03-25T19:41:35Z</time>
      </trkpt>
      <trkpt lat="41.600329000" lon="1.904361000">
        <ele>323.50</ele>
        <time>2014-03-25T19:41:52Z</time>
      </trkpt>
      <trkpt lat="41.600355000" lon="1.904808000">
        <ele>323.00</ele>
        <time>2014-03-25T19:42:05Z</time>
      </trkpt>
      <trkpt lat="41.600343000" lon="1.904875000">
        <ele>323.00</ele>
        <time>2014-03-25T19:42:07Z</time>
      </trkpt>
      <trkpt lat="41.600610000" lon="1.905306000">
        <ele>324.30</ele>
        <time>2014-03-25T19:42:22Z</time>
      </trkpt>
      <trkpt lat="41.600771000" lon="1.905633000">
        <ele>326.20</ele>
        <time>2014-03-25T19:42:33Z</time>
      </trkpt>
      <trkpt lat="41.600975000" lon="1.905756000">
        <ele>328.20</ele>
        <time>2014-03-25T19:42:42Z</time>
      </trkpt>
      <trkpt lat="41.600997000" lon="1.905767000">
        <ele>328.20</ele>
        <time>2014-03-25T19:42:43Z</time>
      </trkpt>
      <trkpt lat="41.600999000" lon="1.905858000">
        <ele>329.80</ele>
        <time>2014-03-25T19:42:49Z</time>
      </trkpt>
      <trkpt lat="41.600733000" lon="1.905946000">
        <ele>332.20</ele>
        <time>2014-03-25T19:43:03Z</time>
      </trkpt>
      <trkpt lat="41.600668000" lon="1.906036000">
        <ele>332.80</ele>
        <time>2014-03-25T19:43:07Z</time>
      </trkpt>
      <trkpt lat="41.600654000" lon="1.906448000">
        <ele>334.00</ele>
        <time>2014-03-25T19:43:20Z</time>
      </trkpt>
      <trkpt lat="41.600694000" lon="1.906688000">
        <ele>334.40</ele>
        <time>2014-03-25T19:43:27Z</time>
      </trkpt>
      <trkpt lat="41.600679000" lon="1.907055000">
        <ele>336.30</ele>
        <time>2014-03-25T19:43:38Z</time>
      </trkpt>
      <trkpt lat="41.600641000" lon="1.907127000">
        <ele>337.30</ele>
        <time>2014-03-25T19:43:42Z</time>
      </trkpt>
      <trkpt lat="41.600581000" lon="1.907217000">
        <ele>337.80</ele>
        <time>2014-03-25T19:43:46Z</time>
      </trkpt>
      <trkpt lat="41.600467000" lon="1.907290000">
        <ele>337.90</ele>
        <time>2014-03-25T19:43:51Z</time>
      </trkpt>
      <trkpt lat="41.600210000" lon="1.907506000">
        <ele>339.90</ele>
        <time>2014-03-25T19:44:05Z</time>
      </trkpt>
      <trkpt lat="41.599996000" lon="1.907713000">
        <ele>341.40</ele>
        <time>2014-03-25T19:44:22Z</time>
      </trkpt>
      <trkpt lat="41.599929000" lon="1.907751000">
        <ele>342.60</ele>
        <time>2014-03-25T19:44:26Z</time>
      </trkpt>
      <trkpt lat="41.599892000" lon="1.907772000">
        <ele>342.70</ele>
        <time>2014-03-25T19:44:28Z</time>
      </trkpt>
      <trkpt lat="41.599844000" lon="1.907827000">
        <ele>344.70</ele>
        <time>2014-03-25T19:44:31Z</time>
      </trkpt>
      <trkpt lat="41.599822000" lon="1.907911000">
        <ele>345.30</ele>
        <time>2014-03-25T19:44:35Z</time>
      </trkpt>
      <trkpt lat="41.599772000" lon="1.908052000">
        <ele>346.60</ele>
        <time>2014-03-25T19:44:41Z</time>
      </trkpt>
      <trkpt lat="41.599761000" lon="1.908119000">
        <ele>347.20</ele>
        <time>2014-03-25T19:44:44Z</time>
      </trkpt>
      <trkpt lat="41.599702000" lon="1.908178000">
        <ele>348.20</ele>
        <time>2014-03-25T19:44:48Z</time>
      </trkpt>
      <trkpt lat="41.599552000" lon="1.908431000">
        <ele>348.30</ele>
        <time>2014-03-25T19:44:59Z</time>
      </trkpt>
      <trkpt lat="41.599448000" lon="1.908985000">
        <ele>347.30</ele>
        <time>2014-03-25T19:45:13Z</time>
      </trkpt>
      <trkpt lat="41.599383000" lon="1.909084000">
        <ele>347.40</ele>
        <time>2014-03-25T19:45:16Z</time>
      </trkpt>
      <trkpt lat="41.599199000" lon="1.909419000">
        <ele>348.10</ele>
        <time>2014-03-25T19:45:26Z</time>
      </trkpt>
      <trkpt lat="41.599252000" lon="1.909856000">
        <ele>346.00</ele>
        <time>2014-03-25T19:45:39Z</time>
      </trkpt>
      <trkpt lat="41.599295000" lon="1.909927000">
        <ele>346.20</ele>
        <time>2014-03-25T19:45:43Z</time>
      </trkpt>
      <trkpt lat="41.599313000" lon="1.909979000">
        <ele>345.30</ele>
        <time>2014-03-25T19:45:45Z</time>
      </trkpt>
      <trkpt lat="41.599425000" lon="1.910084000">
        <ele>343.80</ele>
        <time>2014-03-25T19:45:50Z</time>
      </trkpt>
      <trkpt lat="41.599448000" lon="1.910137000">
        <ele>343.60</ele>
        <time>2014-03-25T19:45:52Z</time>
      </trkpt>
      <trkpt lat="41.599579000" lon="1.910400000">
        <ele>343.00</ele>
        <time>2014-03-25T19:46:00Z</time>
      </trkpt>
      <trkpt lat="41.599542000" lon="1.910671000">
        <ele>342.30</ele>
        <time>2014-03-25T19:46:08Z</time>
      </trkpt>
      <trkpt lat="41.599308000" lon="1.910684000">
        <ele>343.70</ele>
        <time>2014-03-25T19:46:16Z</time>
      </trkpt>
      <trkpt lat="41.598943000" lon="1.910615000">
        <ele>343.10</ele>
        <time>2014-03-25T19:46:27Z</time>
      </trkpt>
      <trkpt lat="41.598670000" lon="1.910603000">
        <ele>344.50</ele>
        <time>2014-03-25T19:46:35Z</time>
      </trkpt>
      <trkpt lat="41.598523000" lon="1.910684000">
        <ele>345.10</ele>
        <time>2014-03-25T19:46:41Z</time>
      </trkpt>
      <trkpt lat="41.598305000" lon="1.910725000">
        <ele>348.50</ele>
        <time>2014-03-25T19:46:51Z</time>
      </trkpt>
      <trkpt lat="41.598151000" lon="1.910759000">
        <ele>348.60</ele>
        <time>2014-03-25T19:46:57Z</time>
      </trkpt>
      <trkpt lat="41.598054000" lon="1.910799000">
        <ele>350.20</ele>
        <time>2014-03-25T19:47:02Z</time>
      </trkpt>
      <trkpt lat="41.597889000" lon="1.911162000">
        <ele>352.10</ele>
        <time>2014-03-25T19:47:16Z</time>
      </trkpt>
      <trkpt lat="41.597658000" lon="1.911349000">
        <ele>353.30</ele>
        <time>2014-03-25T19:47:27Z</time>
      </trkpt>
      <trkpt lat="41.597572000" lon="1.911370000">
        <ele>354.40</ele>
        <time>2014-03-25T19:47:31Z</time>
      </trkpt>
      <trkpt lat="41.597410000" lon="1.911641000">
        <ele>354.80</ele>
        <time>2014-03-25T19:47:42Z</time>
      </trkpt>
      <trkpt lat="41.597132000" lon="1.911787000">
        <ele>353.80</ele>
        <time>2014-03-25T19:47:51Z</time>
      </trkpt>
      <trkpt lat="41.597097000" lon="1.911825000">
        <ele>354.50</ele>
        <time>2014-03-25T19:47:53Z</time>
      </trkpt>
      <trkpt lat="41.597035000" lon="1.911851000">
        <ele>356.00</ele>
        <time>2014-03-25T19:47:56Z</time>
      </trkpt>
      <trkpt lat="41.596882000" lon="1.911879000">
        <ele>358.50</ele>
        <time>2014-03-25T19:48:04Z</time>
      </trkpt>
      <trkpt lat="41.596711000" lon="1.911809000">
        <ele>361.20</ele>
        <time>2014-03-25T19:48:13Z</time>
      </trkpt>
      <trkpt lat="41.596447000" lon="1.911797000">
        <ele>362.60</ele>
        <time>2014-03-25T19:48:27Z</time>
      </trkpt>
      <trkpt lat="41.596179000" lon="1.911866000">
        <ele>362.60</ele>
        <time>2014-03-25T19:48:40Z</time>
      </trkpt>
      <trkpt lat="41.595863000" lon="1.912298000">
        <ele>365.20</ele>
        <time>2014-03-25T19:48:56Z</time>
      </trkpt>
      <trkpt lat="41.595742000" lon="1.912510000">
        <ele>367.60</ele>
        <time>2014-03-25T19:49:06Z</time>
      </trkpt>
      <trkpt lat="41.595677000" lon="1.912549000">
        <ele>366.80</ele>
        <time>2014-03-25T19:49:10Z</time>
      </trkpt>
      <trkpt lat="41.595315000" lon="1.912439000">
        <ele>365.80</ele>
        <time>2014-03-25T19:49:25Z</time>
      </trkpt>
      <trkpt lat="41.594899000" lon="1.912605000">
        <ele>365.40</ele>
        <time>2014-03-25T19:49:35Z</time>
      </trkpt>
      <trkpt lat="41.594728000" lon="1.912612000">
        <ele>363.70</ele>
        <time>2014-03-25T19:49:39Z</time>
      </trkpt>
      <trkpt lat="41.594621000" lon="1.912570000">
        <ele>362.40</ele>
        <time>2014-03-25T19:49:41Z</time>
      </trkpt>
      <trkpt lat="41.594471000" lon="1.912479000">
        <ele>360.70</ele>
        <time>2014-03-25T19:49:44Z</time>
      </trkpt>
      <trkpt lat="41.594281000" lon="1.912655000">
        <ele>357.40</ele>
        <time>2014-03-25T19:49:49Z</time>
      </trkpt>
      <trkpt lat="41.594012000" lon="1.913145000">
        <ele>354.30</ele>
        <time>2014-03-25T19:50:00Z</time>
      </trkpt>
      <trkpt lat="41.593996000" lon="1.913150000">
        <ele>354.00</ele>
        <time>2014-03-25T19:50:13Z</time>
      </trkpt>
      <trkpt lat="41.593993000" lon="1.913152000">
        <ele>353.90</ele>
        <time>2014-03-25T19:51:00Z</time>
      </trkpt>
      <trkpt lat="41.593938000" lon="1.913174000">
        <ele>353.70</ele>
        <time>2014-03-25T19:51:04Z</time>
      </trkpt>
      <trkpt lat="41.593505000" lon="1.912816000">
        <ele>350.70</ele>
        <time>2014-03-25T19:51:19Z</time>
      </trkpt>
      <trkpt lat="41.593047000" lon="1.912429000">
        <ele>349.20</ele>
        <time>2014-03-25T19:51:31Z</time>
      </trkpt>
      <trkpt lat="41.592851000" lon="1.912233000">
        <ele>347.90</ele>
        <time>2014-03-25T19:51:36Z</time>
      </trkpt>
      <trkpt lat="41.592533000" lon="1.912339000">
        <ele>346.70</ele>
        <time>2014-03-25T19:51:43Z</time>
      </trkpt>
      <trkpt lat="41.592450000" lon="1.912521000">
        <ele>346.20</ele>
        <time>2014-03-25T19:51:46Z</time>
      </trkpt>
      <trkpt lat="41.592293000" lon="1.912697000">
        <ele>345.30</ele>
        <time>2014-03-25T19:51:50Z</time>
      </trkpt>
      <trkpt lat="41.592012000" lon="1.912810000">
        <ele>344.30</ele>
        <time>2014-03-25T19:51:55Z</time>
      </trkpt>
      <trkpt lat="41.591787000" lon="1.912800000">
        <ele>343.80</ele>
        <time>2014-03-25T19:51:59Z</time>
      </trkpt>
      <trkpt lat="41.591168000" lon="1.912655000">
        <ele>346.90</ele>
        <time>2014-03-25T19:52:13Z</time>
      </trkpt>
      <trkpt lat="41.590325000" lon="1.912942000">
        <ele>347.70</ele>
        <time>2014-03-25T19:52:33Z</time>
      </trkpt>
      <trkpt lat="41.589892000" lon="1.913329000">
        <ele>343.80</ele>
        <time>2014-03-25T19:52:41Z</time>
      </trkpt>
      <trkpt lat="41.589524000" lon="1.913633000">
        <ele>340.30</ele>
        <time>2014-03-25T19:52:46Z</time>
      </trkpt>
      <trkpt lat="41.589347000" lon="1.913729000">
        <ele>338.60</ele>
        <time>2014-03-25T19:52:48Z</time>
      </trkpt>
      <trkpt lat="41.589066000" lon="1.913791000">
        <ele>337.20</ele>
        <time>2014-03-25T19:52:51Z</time>
      </trkpt>
      <trkpt lat="41.588883000" lon="1.913750000">
        <ele>336.90</ele>
        <time>2014-03-25T19:52:53Z</time>
      </trkpt>
      <trkpt lat="41.588040000" lon="1.913297000">
        <ele>339.20</ele>
        <time>2014-03-25T19:53:06Z</time>
      </trkpt>
      <trkpt lat="41.587993000" lon="1.913265000">
        <ele>339.20</ele>
        <time>2014-03-25T19:53:07Z</time>
      </trkpt>
      <trkpt lat="41.587826000" lon="1.913020000">
        <ele>338.10</ele>
        <time>2014-03-25T19:53:12Z</time>
      </trkpt>
      <trkpt lat="41.587713000" lon="1.912702000">
        <ele>339.90</ele>
        <time>2014-03-25T19:53:20Z</time>
      </trkpt>
      <trkpt lat="41.587654000" lon="1.912828000">
        <ele>339.20</ele>
        <time>2014-03-25T19:53:25Z</time>
      </trkpt>
      <trkpt lat="41.587683000" lon="1.913169000">
        <ele>337.50</ele>
        <time>2014-03-25T19:53:32Z</time>
      </trkpt>
      <trkpt lat="41.587585000" lon="1.913222000">
        <ele>338.50</ele>
        <time>2014-03-25T19:53:36Z</time>
      </trkpt>
      <trkpt lat="41.587485000" lon="1.913202000">
        <ele>340.40</ele>
        <time>2014-03-25T19:53:40Z</time>
      </trkpt>
      <trkpt lat="41.587356000" lon="1.913138000">
        <ele>342.60</ele>
        <time>2014-03-25T19:53:46Z</time>
      </trkpt>
      <trkpt lat="41.587012000" lon="1.912965000">
        <ele>345.90</ele>
        <time>2014-03-25T19:54:01Z</time>
      </trkpt>
      <trkpt lat="41.586619000" lon="1.912883000">
        <ele>348.90</ele>
        <time>2014-03-25T19:54:18Z</time>
      </trkpt>
      <trkpt lat="41.586182000" lon="1.913075000">
        <ele>351.60</ele>
        <time>2014-03-25T19:54:36Z</time>
      </trkpt>
      <trkpt lat="41.585957000" lon="1.913033000">
        <ele>353.80</ele>
        <time>2014-03-25T19:54:48Z</time>
      </trkpt>
      <trkpt lat="41.585782000" lon="1.913092000">
        <ele>351.00</ele>
        <time>2014-03-25T19:54:59Z</time>
      </trkpt>
      <trkpt lat="41.585605000" lon="1.913344000">
        <ele>349.40</ele>
        <time>2014-03-25T19:55:09Z</time>
      </trkpt>
      <trkpt lat="41.585382000" lon="1.913579000">
        <ele>346.20</ele>
        <time>2014-03-25T19:55:18Z</time>
      </trkpt>
      <trkpt lat="41.585361000" lon="1.913599000">
        <ele>345.80</ele>
        <time>2014-03-25T19:55:19Z</time>
      </trkpt>
      <trkpt lat="41.585208000" lon="1.913602000">
        <ele>343.20</ele>
        <time>2014-03-25T19:55:26Z</time>
      </trkpt>
      <trkpt lat="41.585111000" lon="1.913593000">
        <ele>341.70</ele>
        <time>2014-03-25T19:55:33Z</time>
      </trkpt>
      <trkpt lat="41.585086000" lon="1.913613000">
        <ele>341.50</ele>
        <time>2014-03-25T19:55:36Z</time>
      </trkpt>
      <trkpt lat="41.585024000" lon="1.913650000">
        <ele>339.80</ele>
        <time>2014-03-25T19:55:42Z</time>
      </trkpt>
      <trkpt lat="41.584901000" lon="1.913599000">
        <ele>336.50</ele>
        <time>2014-03-25T19:55:47Z</time>
      </trkpt>
      <trkpt lat="41.584880000" lon="1.913562000">
        <ele>336.20</ele>
        <time>2014-03-25T19:55:48Z</time>
      </trkpt>
      <trkpt lat="41.584734000" lon="1.913313000">
        <ele>335.20</ele>
        <time>2014-03-25T19:55:55Z</time>
      </trkpt>
      <trkpt lat="41.584615000" lon="1.913296000">
        <ele>333.40</ele>
        <time>2014-03-25T19:55:59Z</time>
      </trkpt>
      <trkpt lat="41.584435000" lon="1.913307000">
        <ele>330.20</ele>
        <time>2014-03-25T19:56:04Z</time>
      </trkpt>
      <trkpt lat="41.584262000" lon="1.913335000">
        <ele>327.10</ele>
        <time>2014-03-25T19:56:09Z</time>
      </trkpt>
      <trkpt lat="41.583949000" lon="1.913291000">
        <ele>326.40</ele>
        <time>2014-03-25T19:56:18Z</time>
      </trkpt>
      <trkpt lat="41.583873000" lon="1.913310000">
        <ele>325.70</ele>
        <time>2014-03-25T19:56:20Z</time>
      </trkpt>
      <trkpt lat="41.583555000" lon="1.913431000">
        <ele>327.10</ele>
        <time>2014-03-25T19:56:30Z</time>
      </trkpt>
      <trkpt lat="41.583527000" lon="1.913484000">
        <ele>327.80</ele>
        <time>2014-03-25T19:56:32Z</time>
      </trkpt>
      <trkpt lat="41.583512000" lon="1.914017000">
        <ele>326.70</ele>
        <time>2014-03-25T19:56:46Z</time>
      </trkpt>
      <trkpt lat="41.583573000" lon="1.914475000">
        <ele>325.80</ele>
        <time>2014-03-25T19:56:58Z</time>
      </trkpt>
      <trkpt lat="41.583543000" lon="1.914764000">
        <ele>324.50</ele>
        <time>2014-03-25T19:57:03Z</time>
      </trkpt>
      <trkpt lat="41.583701000" lon="1.915179000">
        <ele>328.00</ele>
        <time>2014-03-25T19:57:12Z</time>
      </trkpt>
      <trkpt lat="41.583712000" lon="1.915425000">
        <ele>327.10</ele>
        <time>2014-03-25T19:57:17Z</time>
      </trkpt>
      <trkpt lat="41.583728000" lon="1.915641000">
        <ele>326.60</ele>
        <time>2014-03-25T19:57:21Z</time>
      </trkpt>
      <trkpt lat="41.583785000" lon="1.916412000">
        <ele>326.90</ele>
        <time>2014-03-25T19:57:38Z</time>
      </trkpt>
      <trkpt lat="41.583829000" lon="1.916597000">
        <ele>327.20</ele>
        <time>2014-03-25T19:57:42Z</time>
      </trkpt>
      <trkpt lat="41.583923000" lon="1.916718000">
        <ele>326.80</ele>
        <time>2014-03-25T19:57:46Z</time>
      </trkpt>
      <trkpt lat="41.584127000" lon="1.917614000">
        <ele>324.30</ele>
        <time>2014-03-25T19:58:00Z</time>
      </trkpt>
      <trkpt lat="41.584131000" lon="1.918246000">
        <ele>323.60</ele>
        <time>2014-03-25T19:58:12Z</time>
      </trkpt>
      <trkpt lat="41.584194000" lon="1.918493000">
        <ele>321.70</ele>
        <time>2014-03-25T19:58:16Z</time>
      </trkpt>
      <trkpt lat="41.584305000" lon="1.918787000">
        <ele>320.60</ele>
        <time>2014-03-25T19:58:21Z</time>
      </trkpt>
      <trkpt lat="41.584346000" lon="1.919317000">
        <ele>321.30</ele>
        <time>2014-03-25T19:58:31Z</time>
      </trkpt>
      <trkpt lat="41.584448000" lon="1.920331000">
        <ele>321.70</ele>
        <time>2014-03-25T19:58:50Z</time>
      </trkpt>
      <trkpt lat="41.584543000" lon="1.920999000">
        <ele>320.90</ele>
        <time>2014-03-25T19:59:04Z</time>
      </trkpt>
      <trkpt lat="41.584682000" lon="1.921131000">
        <ele>317.80</ele>
        <time>2014-03-25T19:59:08Z</time>
      </trkpt>
      <trkpt lat="41.584795000" lon="1.921214000">
        <ele>315.90</ele>
        <time>2014-03-25T19:59:11Z</time>
      </trkpt>
      <trkpt lat="41.584918000" lon="1.921288000">
        <ele>312.40</ele>
        <time>2014-03-25T19:59:14Z</time>
      </trkpt>
      <trkpt lat="41.585005000" lon="1.921333000">
        <ele>309.60</ele>
        <time>2014-03-25T19:59:16Z</time>
      </trkpt>
      <trkpt lat="41.585177000" lon="1.921493000">
        <ele>305.40</ele>
        <time>2014-03-25T19:59:21Z</time>
      </trkpt>
      <trkpt lat="41.585199000" lon="1.921532000">
        <ele>305.20</ele>
        <time>2014-03-25T19:59:22Z</time>
      </trkpt>
      <trkpt lat="41.585081000" lon="1.921788000">
        <ele>304.10</ele>
        <time>2014-03-25T19:59:29Z</time>
      </trkpt>
      <trkpt lat="41.585044000" lon="1.921779000">
        <ele>304.20</ele>
        <time>2014-03-25T19:59:30Z</time>
      </trkpt>
      <trkpt lat="41.584229000" lon="1.921754000">
        <ele>307.50</ele>
        <time>2014-03-25T19:59:51Z</time>
      </trkpt>
      <trkpt lat="41.583779000" lon="1.921748000">
        <ele>310.20</ele>
        <time>2014-03-25T20:00:03Z</time>
      </trkpt>
      <trkpt lat="41.583122000" lon="1.921232000">
        <ele>308.50</ele>
        <time>2014-03-25T20:00:20Z</time>
      </trkpt>
      <trkpt lat="41.582626000" lon="1.921319000">
        <ele>305.50</ele>
        <time>2014-03-25T20:00:28Z</time>
      </trkpt>
      <trkpt lat="41.582210000" lon="1.921442000">
        <ele>303.80</ele>
        <time>2014-03-25T20:00:34Z</time>
      </trkpt>
      <trkpt lat="41.581831000" lon="1.921320000">
        <ele>300.20</ele>
        <time>2014-03-25T20:00:39Z</time>
      </trkpt>
      <trkpt lat="41.581105000" lon="1.920684000">
        <ele>296.20</ele>
        <time>2014-03-25T20:00:49Z</time>
      </trkpt>
      <trkpt lat="41.580689000" lon="1.920350000">
        <ele>293.30</ele>
        <time>2014-03-25T20:00:54Z</time>
      </trkpt>
      <trkpt lat="41.580227000" lon="1.920124000">
        <ele>289.70</ele>
        <time>2014-03-25T20:00:59Z</time>
      </trkpt>
      <trkpt lat="41.580043000" lon="1.920072000">
        <ele>289.80</ele>
        <time>2014-03-25T20:01:01Z</time>
      </trkpt>
      <trkpt lat="41.579698000" lon="1.920096000">
        <ele>290.20</ele>
        <time>2014-03-25T20:01:05Z</time>
      </trkpt>
      <trkpt lat="41.579229000" lon="1.920235000">
        <ele>289.90</ele>
        <time>2014-03-25T20:01:11Z</time>
      </trkpt>
      <trkpt lat="41.577919000" lon="1.920162000">
        <ele>288.60</ele>
        <time>2014-03-25T20:01:29Z</time>
      </trkpt>
      <trkpt lat="41.577668000" lon="1.920049000">
        <ele>288.20</ele>
        <time>2014-03-25T20:01:33Z</time>
      </trkpt>
      <trkpt lat="41.577176000" lon="1.919685000">
        <ele>284.40</ele>
        <time>2014-03-25T20:01:41Z</time>
      </trkpt>
      <trkpt lat="41.577117000" lon="1.919640000">
        <ele>284.10</ele>
        <time>2014-03-25T20:01:42Z</time>
      </trkpt>
      <trkpt lat="41.577053000" lon="1.919597000">
        <ele>284.20</ele>
        <time>2014-03-25T20:01:43Z</time>
      </trkpt>
      <trkpt lat="41.576777000" lon="1.919477000">
        <ele>282.90</ele>
        <time>2014-03-25T20:01:47Z</time>
      </trkpt>
      <trkpt lat="41.576473000" lon="1.919454000">
        <ele>282.20</ele>
        <time>2014-03-25T20:01:51Z</time>
      </trkpt>
      <trkpt lat="41.575842000" lon="1.919767000">
        <ele>281.70</ele>
        <time>2014-03-25T20:02:00Z</time>
      </trkpt>
      <trkpt lat="41.575525000" lon="1.919680000">
        <ele>281.70</ele>
        <time>2014-03-25T20:02:05Z</time>
      </trkpt>
      <trkpt lat="41.575127000" lon="1.920007000">
        <ele>282.90</ele>
        <time>2014-03-25T20:02:12Z</time>
      </trkpt>
      <trkpt lat="41.575051000" lon="1.920152000">
        <ele>282.70</ele>
        <time>2014-03-25T20:02:14Z</time>
      </trkpt>
      <trkpt lat="41.574568000" lon="1.920329000">
        <ele>281.20</ele>
        <time>2014-03-25T20:02:22Z</time>
      </trkpt>
      <trkpt lat="41.574432000" lon="1.920125000">
        <ele>280.90</ele>
        <time>2014-03-25T20:02:25Z</time>
      </trkpt>
      <trkpt lat="41.574329000" lon="1.919868000">
        <ele>280.50</ele>
        <time>2014-03-25T20:02:28Z</time>
      </trkpt>
      <trkpt lat="41.574032000" lon="1.919576000">
        <ele>279.90</ele>
        <time>2014-03-25T20:02:33Z</time>
      </trkpt>
      <trkpt lat="41.573795000" lon="1.919507000">
        <ele>279.60</ele>
        <time>2014-03-25T20:02:36Z</time>
      </trkpt>
      <trkpt lat="41.573462000" lon="1.919583000">
        <ele>277.60</ele>
        <time>2014-03-25T20:02:40Z</time>
      </trkpt>
      <trkpt lat="41.573320000" lon="1.919734000">
        <ele>276.80</ele>
        <time>2014-03-25T20:02:42Z</time>
      </trkpt>
      <trkpt lat="41.572340000" lon="1.920898000">
        <ele>276.50</ele>
        <time>2014-03-25T20:02:57Z</time>
      </trkpt>
      <trkpt lat="41.571778000" lon="1.921105000">
        <ele>275.60</ele>
        <time>2014-03-25T20:03:04Z</time>
      </trkpt>
      <trkpt lat="41.571082000" lon="1.920910000">
        <ele>274.60</ele>
        <time>2014-03-25T20:03:13Z</time>
      </trkpt>
      <trkpt lat="41.570734000" lon="1.920839000">
        <ele>270.70</ele>
        <time>2014-03-25T20:03:17Z</time>
      </trkpt>
      <trkpt lat="41.570239000" lon="1.920708000">
        <ele>266.00</ele>
        <time>2014-03-25T20:03:22Z</time>
      </trkpt>
      <trkpt lat="41.570140000" lon="1.920681000">
        <ele>265.60</ele>
        <time>2014-03-25T20:03:23Z</time>
      </trkpt>
      <trkpt lat="41.569770000" lon="1.920916000">
        <ele>263.50</ele>
        <time>2014-03-25T20:03:28Z</time>
      </trkpt>
      <trkpt lat="41.569653000" lon="1.921116000">
        <ele>261.40</ele>
        <time>2014-03-25T20:03:30Z</time>
      </trkpt>
      <trkpt lat="41.569344000" lon="1.921493000">
        <ele>256.20</ele>
        <time>2014-03-25T20:03:34Z</time>
      </trkpt>
      <trkpt lat="41.569062000" lon="1.921739000">
        <ele>253.30</ele>
        <time>2014-03-25T20:03:37Z</time>
      </trkpt>
      <trkpt lat="41.568799000" lon="1.922421000">
        <ele>252.20</ele>
        <time>2014-03-25T20:03:43Z</time>
      </trkpt>
      <trkpt lat="41.568784000" lon="1.922665000">
        <ele>251.90</ele>
        <time>2014-03-25T20:03:45Z</time>
      </trkpt>
      <trkpt lat="41.568561000" lon="1.923159000">
        <ele>252.80</ele>
        <time>2014-03-25T20:03:50Z</time>
      </trkpt>
      <trkpt lat="41.568296000" lon="1.923453000">
        <ele>251.40</ele>
        <time>2014-03-25T20:03:54Z</time>
      </trkpt>
      <trkpt lat="41.568071000" lon="1.923623000">
        <ele>250.10</ele>
        <time>2014-03-25T20:03:57Z</time>
      </trkpt>
      <trkpt lat="41.567906000" lon="1.923699000">
        <ele>249.00</ele>
        <time>2014-03-25T20:03:59Z</time>
      </trkpt>
      <trkpt lat="41.567735000" lon="1.923742000">
        <ele>248.40</ele>
        <time>2014-03-25T20:04:01Z</time>
      </trkpt>
      <trkpt lat="41.567393000" lon="1.923703000">
        <ele>246.80</ele>
        <time>2014-03-25T20:04:05Z</time>
      </trkpt>
      <trkpt lat="41.566989000" lon="1.923092000">
        <ele>245.10</ele>
        <time>2014-03-25T20:04:13Z</time>
      </trkpt>
      <trkpt lat="41.566979000" lon="1.922898000">
        <ele>246.00</ele>
        <time>2014-03-25T20:04:15Z</time>
      </trkpt>
      <trkpt lat="41.566815000" lon="1.922342000">
        <ele>247.60</ele>
        <time>2014-03-25T20:04:22Z</time>
      </trkpt>
      <trkpt lat="41.566514000" lon="1.922043000">
        <ele>247.50</ele>
        <time>2014-03-25T20:04:28Z</time>
      </trkpt>
      <trkpt lat="41.565763000" lon="1.921787000">
        <ele>249.80</ele>
        <time>2014-03-25T20:04:42Z</time>
      </trkpt>
      <trkpt lat="41.565681000" lon="1.921735000">
        <ele>251.20</ele>
        <time>2014-03-25T20:04:44Z</time>
      </trkpt>
      <trkpt lat="41.565189000" lon="1.921438000">
        <ele>252.20</ele>
        <time>2014-03-25T20:04:57Z</time>
      </trkpt>
      <trkpt lat="41.565023000" lon="1.921205000">
        <ele>249.20</ele>
        <time>2014-03-25T20:05:02Z</time>
      </trkpt>
      <trkpt lat="41.564918000" lon="1.921095000">
        <ele>248.20</ele>
        <time>2014-03-25T20:05:04Z</time>
      </trkpt>
      <trkpt lat="41.564625000" lon="1.920930000">
        <ele>245.10</ele>
        <time>2014-03-25T20:05:08Z</time>
      </trkpt>
      <trkpt lat="41.564300000" lon="1.921103000">
        <ele>243.10</ele>
        <time>2014-03-25T20:05:12Z</time>
      </trkpt>
      <trkpt lat="41.564177000" lon="1.921272000">
        <ele>243.60</ele>
        <time>2014-03-25T20:05:14Z</time>
      </trkpt>
      <trkpt lat="41.563724000" lon="1.921303000">
        <ele>245.40</ele>
        <time>2014-03-25T20:05:21Z</time>
      </trkpt>
      <trkpt lat="41.562864000" lon="1.920276000">
        <ele>245.80</ele>
        <time>2014-03-25T20:05:41Z</time>
      </trkpt>
      <trkpt lat="41.562714000" lon="1.920135000">
        <ele>246.20</ele>
        <time>2014-03-25T20:05:44Z</time>
      </trkpt>
      <trkpt lat="41.562565000" lon="1.919878000">
        <ele>246.60</ele>
        <time>2014-03-25T20:05:48Z</time>
      </trkpt>
      <trkpt lat="41.562514000" lon="1.919740000">
        <ele>247.50</ele>
        <time>2014-03-25T20:05:50Z</time>
      </trkpt>
      <trkpt lat="41.562145000" lon="1.919543000">
        <ele>248.00</ele>
        <time>2014-03-25T20:05:58Z</time>
      </trkpt>
      <trkpt lat="41.561470000" lon="1.919672000">
        <ele>246.10</ele>
        <time>2014-03-25T20:06:09Z</time>
      </trkpt>
      <trkpt lat="41.561208000" lon="1.919579000">
        <ele>245.60</ele>
        <time>2014-03-25T20:06:13Z</time>
      </trkpt>
      <trkpt lat="41.561037000" lon="1.919436000">
        <ele>245.80</ele>
        <time>2014-03-25T20:06:16Z</time>
      </trkpt>
      <trkpt lat="41.560702000" lon="1.919558000">
        <ele>245.80</ele>
        <time>2014-03-25T20:06:22Z</time>
      </trkpt>
      <trkpt lat="41.560629000" lon="1.919683000">
        <ele>246.60</ele>
        <time>2014-03-25T20:06:24Z</time>
      </trkpt>
      <trkpt lat="41.560145000" lon="1.919840000">
        <ele>246.90</ele>
        <time>2014-03-25T20:06:33Z</time>
      </trkpt>
      <trkpt lat="41.559438000" lon="1.919509000">
        <ele>245.20</ele>
        <time>2014-03-25T20:06:45Z</time>
      </trkpt>
      <trkpt lat="41.559098000" lon="1.919120000">
        <ele>243.70</ele>
        <time>2014-03-25T20:06:52Z</time>
      </trkpt>
      <trkpt lat="41.559066000" lon="1.919042000">
        <ele>244.30</ele>
        <time>2014-03-25T20:06:53Z</time>
      </trkpt>
      <trkpt lat="41.558651000" lon="1.917955000">
        <ele>244.80</ele>
        <time>2014-03-25T20:07:08Z</time>
      </trkpt>
      <trkpt lat="41.558621000" lon="1.917891000">
        <ele>245.20</ele>
        <time>2014-03-25T20:07:09Z</time>
      </trkpt>
      <trkpt lat="41.558283000" lon="1.917347000">
        <ele>245.40</ele>
        <time>2014-03-25T20:07:19Z</time>
      </trkpt>
      <trkpt lat="41.558171000" lon="1.916849000">
        <ele>243.90</ele>
        <time>2014-03-25T20:07:25Z</time>
      </trkpt>
      <trkpt lat="41.558177000" lon="1.916658000">
        <ele>243.00</ele>
        <time>2014-03-25T20:07:27Z</time>
      </trkpt>
      <trkpt lat="41.557900000" lon="1.916160000">
        <ele>242.80</ele>
        <time>2014-03-25T20:07:34Z</time>
      </trkpt>
      <trkpt lat="41.557647000" lon="1.916435000">
        <ele>244.20</ele>
        <time>2014-03-25T20:07:39Z</time>
      </trkpt>
      <trkpt lat="41.557486000" lon="1.916941000">
        <ele>246.80</ele>
        <time>2014-03-25T20:07:46Z</time>
      </trkpt>
      <trkpt lat="41.557411000" lon="1.917193000">
        <ele>248.00</ele>
        <time>2014-03-25T20:07:50Z</time>
      </trkpt>
      <trkpt lat="41.557126000" lon="1.917353000">
        <ele>249.40</ele>
        <time>2014-03-25T20:07:57Z</time>
      </trkpt>
      <trkpt lat="41.556937000" lon="1.917250000">
        <ele>248.20</ele>
        <time>2014-03-25T20:08:01Z</time>
      </trkpt>
      <trkpt lat="41.556894000" lon="1.917234000">
        <ele>248.30</ele>
        <time>2014-03-25T20:08:02Z</time>
      </trkpt>
      <trkpt lat="41.556744000" lon="1.917228000">
        <ele>248.90</ele>
        <time>2014-03-25T20:08:06Z</time>
      </trkpt>
      <trkpt lat="41.556720000" lon="1.917127000">
        <ele>248.80</ele>
        <time>2014-03-25T20:08:14Z</time>
      </trkpt>
      <trkpt lat="41.556722000" lon="1.917125000">
        <ele>248.10</ele>
        <time>2014-03-25T20:08:59Z</time>
      </trkpt>
      <trkpt lat="41.556798000" lon="1.917077000">
        <ele>248.30</ele>
        <time>2014-03-25T20:09:41Z</time>
      </trkpt>
      <trkpt lat="41.556861000" lon="1.916932000">
        <ele>246.00</ele>
        <time>2014-03-25T20:09:45Z</time>
      </trkpt>
      <trkpt lat="41.556938000" lon="1.916660000">
        <ele>243.40</ele>
        <time>2014-03-25T20:09:49Z</time>
      </trkpt>
      <trkpt lat="41.556986000" lon="1.916512000">
        <ele>242.20</ele>
        <time>2014-03-25T20:09:51Z</time>
      </trkpt>
      <trkpt lat="41.557019000" lon="1.916239000">
        <ele>240.40</ele>
        <time>2014-03-25T20:09:54Z</time>
      </trkpt>
      <trkpt lat="41.556983000" lon="1.915929000">
        <ele>239.00</ele>
        <time>2014-03-25T20:09:57Z</time>
      </trkpt>
      <trkpt lat="41.556812000" lon="1.915355000">
        <ele>233.50</ele>
        <time>2014-03-25T20:10:02Z</time>
      </trkpt>
      <trkpt lat="41.556774000" lon="1.915240000">
        <ele>233.30</ele>
        <time>2014-03-25T20:10:03Z</time>
      </trkpt>
      <trkpt lat="41.556654000" lon="1.914904000">
        <ele>231.50</ele>
        <time>2014-03-25T20:10:06Z</time>
      </trkpt>
      <trkpt lat="41.556538000" lon="1.914418000">
        <ele>228.30</ele>
        <time>2014-03-25T20:10:10Z</time>
      </trkpt>
      <trkpt lat="41.556510000" lon="1.914296000">
        <ele>228.80</ele>
        <time>2014-03-25T20:10:11Z</time>
      </trkpt>
      <trkpt lat="41.556312000" lon="1.913846000">
        <ele>225.40</ele>
        <time>2014-03-25T20:10:15Z</time>
      </trkpt>
      <trkpt lat="41.556187000" lon="1.913346000">
        <ele>224.00</ele>
        <time>2014-03-25T20:10:19Z</time>
      </trkpt>
      <trkpt lat="41.556144000" lon="1.912794000">
        <ele>219.30</ele>
        <time>2014-03-25T20:10:23Z</time>
      </trkpt>
      <trkpt lat="41.555901000" lon="1.912186000">
        <ele>215.00</ele>
        <time>2014-03-25T20:10:28Z</time>
      </trkpt>
      <trkpt lat="41.555746000" lon="1.911981000">
        <ele>212.50</ele>
        <time>2014-03-25T20:10:30Z</time>
      </trkpt>
      <trkpt lat="41.555509000" lon="1.911512000">
        <ele>209.70</ele>
        <time>2014-03-25T20:10:34Z</time>
      </trkpt>
      <trkpt lat="41.555420000" lon="1.911160000">
        <ele>207.90</ele>
        <time>2014-03-25T20:10:37Z</time>
      </trkpt>
      <trkpt lat="41.555538000" lon="1.910843000">
        <ele>204.40</ele>
        <time>2014-03-25T20:10:40Z</time>
      </trkpt>
      <trkpt lat="41.555606000" lon="1.910759000">
        <ele>203.00</ele>
        <time>2014-03-25T20:10:41Z</time>
      </trkpt>
      <trkpt lat="41.555896000" lon="1.910419000">
        <ele>201.00</ele>
        <time>2014-03-25T20:10:45Z</time>
      </trkpt>
      <trkpt lat="41.556053000" lon="1.910095000">
        <ele>198.20</ele>
        <time>2014-03-25T20:10:48Z</time>
      </trkpt>
      <trkpt lat="41.555891000" lon="1.909580000">
        <ele>197.90</ele>
        <time>2014-03-25T20:10:53Z</time>
      </trkpt>
      <trkpt lat="41.555710000" lon="1.909508000">
        <ele>197.50</ele>
        <time>2014-03-25T20:10:55Z</time>
      </trkpt>
      <trkpt lat="41.555134000" lon="1.909355000">
        <ele>196.60</ele>
        <time>2014-03-25T20:11:01Z</time>
      </trkpt>
      <trkpt lat="41.554673000" lon="1.909651000">
        <ele>195.60</ele>
        <time>2014-03-25T20:11:07Z</time>
      </trkpt>
      <trkpt lat="41.554499000" lon="1.910043000">
        <ele>195.90</ele>
        <time>2014-03-25T20:11:11Z</time>
      </trkpt>
      <trkpt lat="41.554117000" lon="1.910271000">
        <ele>196.60</ele>
        <time>2014-03-25T20:11:17Z</time>
      </trkpt>
      <trkpt lat="41.553879000" lon="1.910005000">
        <ele>197.10</ele>
        <time>2014-03-25T20:11:21Z</time>
      </trkpt>
      <trkpt lat="41.553726000" lon="1.909752000">
        <ele>196.80</ele>
        <time>2014-03-25T20:11:24Z</time>
      </trkpt>
      <trkpt lat="41.553610000" lon="1.909602000">
        <ele>197.50</ele>
        <time>2014-03-25T20:11:26Z</time>
      </trkpt>
      <trkpt lat="41.553251000" lon="1.909434000">
        <ele>198.10</ele>
        <time>2014-03-25T20:11:31Z</time>
      </trkpt>
      <trkpt lat="41.552865000" lon="1.909450000">
        <ele>196.90</ele>
        <time>2014-03-25T20:11:36Z</time>
      </trkpt>
      <trkpt lat="41.552481000" lon="1.909446000">
        <ele>194.70</ele>
        <time>2014-03-25T20:11:41Z</time>
      </trkpt>
      <trkpt lat="41.551997000" lon="1.909234000">
        <ele>192.30</ele>
        <time>2014-03-25T20:11:47Z</time>
      </trkpt>
      <trkpt lat="41.551491000" lon="1.908993000">
        <ele>188.90</ele>
        <time>2014-03-25T20:11:53Z</time>
      </trkpt>
      <trkpt lat="41.551302000" lon="1.909003000">
        <ele>187.60</ele>
        <time>2014-03-25T20:11:55Z</time>
      </trkpt>
      <trkpt lat="41.550829000" lon="1.908682000">
        <ele>184.10</ele>
        <time>2014-03-25T20:12:01Z</time>
      </trkpt>
      <trkpt lat="41.550783000" lon="1.908568000">
        <ele>183.80</ele>
        <time>2014-03-25T20:12:02Z</time>
      </trkpt>
      <trkpt lat="41.550682000" lon="1.908343000">
        <ele>183.20</ele>
        <time>2014-03-25T20:12:04Z</time>
      </trkpt>
      <trkpt lat="41.550296000" lon="1.907935000">
        <ele>179.40</ele>
        <time>2014-03-25T20:12:09Z</time>
      </trkpt>
      <trkpt lat="41.550213000" lon="1.907865000">
        <ele>179.20</ele>
        <time>2014-03-25T20:12:10Z</time>
      </trkpt>
      <trkpt lat="41.549962000" lon="1.907644000">
        <ele>176.00</ele>
        <time>2014-03-25T20:12:13Z</time>
      </trkpt>
      <trkpt lat="41.549737000" lon="1.907219000">
        <ele>174.60</ele>
        <time>2014-03-25T20:12:17Z</time>
      </trkpt>
      <trkpt lat="41.549651000" lon="1.906989000">
        <ele>172.80</ele>
        <time>2014-03-25T20:12:19Z</time>
      </trkpt>
      <trkpt lat="41.549243000" lon="1.906647000">
        <ele>170.60</ele>
        <time>2014-03-25T20:12:24Z</time>
      </trkpt>
      <trkpt lat="41.548916000" lon="1.906121000">
        <ele>166.90</ele>
        <time>2014-03-25T20:12:29Z</time>
      </trkpt>
      <trkpt lat="41.548723000" lon="1.905771000">
        <ele>165.30</ele>
        <time>2014-03-25T20:12:32Z</time>
      </trkpt>
      <trkpt lat="41.548462000" lon="1.905286000">
        <ele>163.60</ele>
        <time>2014-03-25T20:12:36Z</time>
      </trkpt>
      <trkpt lat="41.548325000" lon="1.905040000">
        <ele>161.00</ele>
        <time>2014-03-25T20:12:38Z</time>
      </trkpt>
      <trkpt lat="41.548054000" lon="1.904789000">
        <ele>159.20</ele>
        <time>2014-03-25T20:12:41Z</time>
      </trkpt>
      <trkpt lat="41.547950000" lon="1.904741000">
        <ele>158.90</ele>
        <time>2014-03-25T20:12:42Z</time>
      </trkpt>
      <trkpt lat="41.547631000" lon="1.904627000">
        <ele>155.60</ele>
        <time>2014-03-25T20:12:45Z</time>
      </trkpt>
      <trkpt lat="41.547074000" lon="1.904459000">
        <ele>152.70</ele>
        <time>2014-03-25T20:12:50Z</time>
      </trkpt>
      <trkpt lat="41.546694000" lon="1.904114000">
        <ele>148.50</ele>
        <time>2014-03-25T20:12:54Z</time>
      </trkpt>
      <trkpt lat="41.546536000" lon="1.903901000">
        <ele>146.40</ele>
        <time>2014-03-25T20:12:56Z</time>
      </trkpt>
      <trkpt lat="41.545778000" lon="1.903850000">
        <ele>142.40</ele>
        <time>2014-03-25T20:13:03Z</time>
      </trkpt>
      <trkpt lat="41.545430000" lon="1.903787000">
        <ele>136.70</ele>
        <time>2014-03-25T20:13:06Z</time>
      </trkpt>
      <trkpt lat="41.545319000" lon="1.903754000">
        <ele>136.50</ele>
        <time>2014-03-25T20:13:07Z</time>
      </trkpt>
      <trkpt lat="41.545110000" lon="1.903648000">
        <ele>135.20</ele>
        <time>2014-03-25T20:13:09Z</time>
      </trkpt>
      <trkpt lat="41.544823000" lon="1.903457000">
        <ele>132.30</ele>
        <time>2014-03-25T20:13:12Z</time>
      </trkpt>
      <trkpt lat="41.544571000" lon="1.902913000">
        <ele>130.50</ele>
        <time>2014-03-25T20:13:17Z</time>
      </trkpt>
      <trkpt lat="41.544561000" lon="1.902641000">
        <ele>129.00</ele>
        <time>2014-03-25T20:13:19Z</time>
      </trkpt>
      <trkpt lat="41.544523000" lon="1.902372000">
        <ele>127.90</ele>
        <time>2014-03-25T20:13:21Z</time>
      </trkpt>
      <trkpt lat="41.544516000" lon="1.902239000">
        <ele>128.50</ele>
        <time>2014-03-25T20:13:22Z</time>
      </trkpt>
      <trkpt lat="41.544555000" lon="1.901694000">
        <ele>132.50</ele>
        <time>2014-03-25T20:13:27Z</time>
      </trkpt>
      <trkpt lat="41.544547000" lon="1.900672000">
        <ele>129.30</ele>
        <time>2014-03-25T20:13:39Z</time>
      </trkpt>
      <trkpt lat="41.544513000" lon="1.900287000">
        <ele>127.90</ele>
        <time>2014-03-25T20:13:43Z</time>
      </trkpt>
      <trkpt lat="41.544544000" lon="1.899999000">
        <ele>125.90</ele>
        <time>2014-03-25T20:13:46Z</time>
      </trkpt>
      <trkpt lat="41.544569000" lon="1.899917000">
        <ele>125.50</ele>
        <time>2014-03-25T20:13:47Z</time>
      </trkpt>
      <trkpt lat="41.544651000" lon="1.899695000">
        <ele>126.10</ele>
        <time>2014-03-25T20:13:50Z</time>
      </trkpt>
      <trkpt lat="41.544731000" lon="1.899407000">
        <ele>122.60</ele>
        <time>2014-03-25T20:13:54Z</time>
      </trkpt>
      <trkpt lat="41.544763000" lon="1.899207000">
        <ele>120.70</ele>
        <time>2014-03-25T20:13:56Z</time>
      </trkpt>
      <trkpt lat="41.544759000" lon="1.898762000">
        <ele>117.10</ele>
        <time>2014-03-25T20:14:00Z</time>
      </trkpt>
      <trkpt lat="41.544735000" lon="1.898503000">
        <ele>119.80</ele>
        <time>2014-03-25T20:14:03Z</time>
      </trkpt>
      <trkpt lat="41.544729000" lon="1.898369000">
        <ele>120.60</ele>
        <time>2014-03-25T20:14:05Z</time>
      </trkpt>
      <trkpt lat="41.544710000" lon="1.897730000">
        <ele>116.90</ele>
        <time>2014-03-25T20:14:13Z</time>
      </trkpt>
      <trkpt lat="41.544705000" lon="1.897642000">
        <ele>116.90</ele>
        <time>2014-03-25T20:14:14Z</time>
      </trkpt>
      <trkpt lat="41.544696000" lon="1.897321000">
        <ele>115.90</ele>
        <time>2014-03-25T20:14:18Z</time>
      </trkpt>
      <trkpt lat="41.544720000" lon="1.897068000">
        <ele>115.70</ele>
        <time>2014-03-25T20:14:23Z</time>
      </trkpt>
      <trkpt lat="41.544663000" lon="1.896858000">
        <ele>110.50</ele>
        <time>2014-03-25T20:14:26Z</time>
      </trkpt>
      <trkpt lat="41.544592000" lon="1.896660000">
        <ele>106.20</ele>
        <time>2014-03-25T20:14:28Z</time>
      </trkpt>
      <trkpt lat="41.544473000" lon="1.896338000">
        <ele>102.40</ele>
        <time>2014-03-25T20:14:31Z</time>
      </trkpt>
      <trkpt lat="41.544440000" lon="1.896242000">
        <ele>102.40</ele>
        <time>2014-03-25T20:14:32Z</time>
      </trkpt>
      <trkpt lat="41.544355000" lon="1.895903000">
        <ele>101.10</ele>
        <time>2014-03-25T20:14:38Z</time>
      </trkpt>
      <trkpt lat="41.544364000" lon="1.895664000">
        <ele>100.00</ele>
        <time>2014-03-25T20:14:43Z</time>
      </trkpt>
      <trkpt lat="41.544483000" lon="1.894913000">
        <ele>101.90</ele>
        <time>2014-03-25T20:14:58Z</time>
      </trkpt>
      <trkpt lat="41.544546000" lon="1.894773000">
        <ele>103.40</ele>
        <time>2014-03-25T20:15:02Z</time>
      </trkpt>
      <trkpt lat="41.544824000" lon="1.894290000">
        <ele>105.10</ele>
        <time>2014-03-25T20:15:13Z</time>
      </trkpt>
      <trkpt lat="41.544934000" lon="1.894154000">
        <ele>105.50</ele>
        <time>2014-03-25T20:15:17Z</time>
      </trkpt>
      <trkpt lat="41.544977000" lon="1.893970000">
        <ele>106.10</ele>
        <time>2014-03-25T20:15:26Z</time>
      </trkpt>
      <trkpt lat="41.544908000" lon="1.893944000">
        <ele>105.40</ele>
        <time>2014-03-25T20:15:31Z</time>
      </trkpt>
      <trkpt lat="41.544869000" lon="1.893815000">
        <ele>105.00</ele>
        <time>2014-03-25T20:15:35Z</time>
      </trkpt>
      <trkpt lat="41.544910000" lon="1.893656000">
        <ele>105.20</ele>
        <time>2014-03-25T20:15:38Z</time>
      </trkpt>
      <trkpt lat="41.544986000" lon="1.893545000">
        <ele>105.10</ele>
        <time>2014-03-25T20:15:41Z</time>
      </trkpt>
      <trkpt lat="41.545005000" lon="1.893487000">
        <ele>105.10</ele>
        <time>2014-03-25T20:15:43Z</time>
      </trkpt>
      <trkpt lat="41.544985000" lon="1.893377000">
        <ele>104.80</ele>
        <time>2014-03-25T20:15:47Z</time>
      </trkpt>
      <trkpt lat="41.544989000" lon="1.893312000">
        <ele>105.00</ele>
        <time>2014-03-25T20:15:52Z</time>
      </trkpt>
      <trkpt lat="41.544761000" lon="1.893284000">
        <ele>103.80</ele>
        <time>2014-03-25T20:15:58Z</time>
      </trkpt>
      <trkpt lat="41.544539000" lon="1.892955000">
        <ele>102.00</ele>
        <time>2014-03-25T20:16:08Z</time>
      </trkpt>
      <trkpt lat="41.544450000" lon="1.892804000">
        <ele>102.20</ele>
        <time>2014-03-25T20:16:12Z</time>
      </trkpt>
      <trkpt lat="41.544338000" lon="1.892770000">
        <ele>102.10</ele>
        <time>2014-03-25T20:16:17Z</time>
      </trkpt>
      <trkpt lat="41.544360000" lon="1.892620000">
        <ele>101.90</ele>
        <time>2014-03-25T20:16:23Z</time>
      </trkpt>
      <trkpt lat="41.544342000" lon="1.892587000">
        <ele>101.40</ele>
        <time>2014-03-25T20:16:25Z</time>
      </trkpt>
      <trkpt lat="41.544361000" lon="1.892518000">
        <ele>102.60</ele>
        <time>2014-03-25T20:16:28Z</time>
      </trkpt>
      <trkpt lat="41.544352000" lon="1.892488000">
        <ele>102.70</ele>
        <time>2014-03-25T20:16:29Z</time>
      </trkpt>
      <trkpt lat="41.544273000" lon="1.892369000">
        <ele>102.30</ele>
        <time>2014-03-25T20:16:32Z</time>
      </trkpt>
      <trkpt lat="41.544028000" lon="1.891879000">
        <ele>98.80</ele>
        <time>2014-03-25T20:16:41Z</time>
      </trkpt>
      <trkpt lat="41.543996000" lon="1.891829000">
        <ele>97.80</ele>
        <time>2014-03-25T20:16:42Z</time>
      </trkpt>
      <trkpt lat="41.543992000" lon="1.891572000">
        <ele>100.40</ele>
        <time>2014-03-25T20:16:47Z</time>
      </trkpt>
      <trkpt lat="41.544066000" lon="1.891496000">
        <ele>101.10</ele>
        <time>2014-03-25T20:16:49Z</time>
      </trkpt>
      <trkpt lat="41.544490000" lon="1.891120000">
        <ele>98.10</ele>
        <time>2014-03-25T20:17:01Z</time>
      </trkpt>
      <trkpt lat="41.544676000" lon="1.890962000">
        <ele>96.90</ele>
        <time>2014-03-25T20:17:07Z</time>
      </trkpt>
      <trkpt lat="41.544613000" lon="1.890722000">
        <ele>93.90</ele>
        <time>2014-03-25T20:17:13Z</time>
      </trkpt>
      <trkpt lat="41.544596000" lon="1.890453000">
        <ele>94.00</ele>
        <time>2014-03-25T20:17:18Z</time>
      </trkpt>
      <trkpt lat="41.544639000" lon="1.890281000">
        <ele>93.90</ele>
        <time>2014-03-25T20:17:21Z</time>
      </trkpt>
      <trkpt lat="41.544560000" lon="1.890039000">
        <ele>92.80</ele>
        <time>2014-03-25T20:17:26Z</time>
      </trkpt>
      <trkpt lat="41.544439000" lon="1.889815000">
        <ele>91.40</ele>
        <time>2014-03-25T20:17:31Z</time>
      </trkpt>
      <trkpt lat="41.544463000" lon="1.889622000">
        <ele>90.80</ele>
        <time>2014-03-25T20:17:34Z</time>
      </trkpt>
      <trkpt lat="41.544447000" lon="1.889355000">
        <ele>90.10</ele>
        <time>2014-03-25T20:17:38Z</time>
      </trkpt>
      <trkpt lat="41.544535000" lon="1.888425000">
        <ele>88.90</ele>
        <time>2014-03-25T20:17:52Z</time>
      </trkpt>
      <trkpt lat="41.544565000" lon="1.888239000">
        <ele>90.20</ele>
        <time>2014-03-25T20:17:55Z</time>
      </trkpt>
      <trkpt lat="41.544613000" lon="1.888064000">
        <ele>89.90</ele>
        <time>2014-03-25T20:17:58Z</time>
      </trkpt>
      <trkpt lat="41.544669000" lon="1.887769000">
        <ele>92.10</ele>
        <time>2014-03-25T20:18:03Z</time>
      </trkpt>
      <trkpt lat="41.544587000" lon="1.887638000">
        <ele>91.40</ele>
        <time>2014-03-25T20:18:07Z</time>
      </trkpt>
      <trkpt lat="41.544377000" lon="1.887521000">
        <ele>92.90</ele>
        <time>2014-03-25T20:18:14Z</time>
      </trkpt>
      <trkpt lat="41.544379000" lon="1.887364000">
        <ele>91.60</ele>
        <time>2014-03-25T20:18:21Z</time>
      </trkpt>
      <trkpt lat="41.544435000" lon="1.887230000">
        <ele>91.30</ele>
        <time>2014-03-25T20:18:25Z</time>
      </trkpt>
      <trkpt lat="41.544797000" lon="1.886529000">
        <ele>90.30</ele>
        <time>2014-03-25T20:18:38Z</time>
      </trkpt>
      <trkpt lat="41.544727000" lon="1.886236000">
        <ele>91.70</ele>
        <time>2014-03-25T20:18:47Z</time>
      </trkpt>
      <trkpt lat="41.544654000" lon="1.886186000">
        <ele>92.00</ele>
        <time>2014-03-25T20:18:58Z</time>
      </trkpt>
    </trkseg>
  </trk>
</gpx>
